<?xml version="1.0" encoding="UTF-8" standalone="no" ?>
<gpx xmlns="http://www.topografix.com/GPX/1/1" xmlns:xsi="http://www.w3.org/2001/XMLSchema-instance" xsi:schemaLocation="http://www.topografix.com/GPX/1/1 http://www.topografix.com/GPX/1/1/gpx.xsd" version="1.1" creator="VisuGPX - https://www.visugpx.com">
  <metadata>
    <name>M - 83 - Taradeau </name>
    <desc><![CDATA[83 - M - Taradeau la Pouponne 
2021-06-23-01]]></desc>
  </metadata>
  <trk>
    <name><![CDATA[Taradeau la pouponne 2021-06-23-01]]></name>
    <extensions>
      <line xmlns="http://www.topografix.com/GPX/gpx_style/0/2">
        <width>4</width>
      </line>
    </extensions>
    <trkseg>
      <trkpt lat="43.44349" lon="6.42192">
        <ele>95.6</ele>
        <time>2021-06-23T06:52:05.000Z</time>
      </trkpt>
      <trkpt lat="43.44349" lon="6.42193">
        <ele>100</ele>
        <time>2021-06-23T06:52:05.000Z</time>
      </trkpt>
      <trkpt lat="43.44349" lon="6.42193">
        <ele>100</ele>
        <time>2021-06-23T06:52:05.000Z</time>
      </trkpt>
      <trkpt lat="43.44352" lon="6.42177">
        <ele>79</ele>
        <time>2021-06-23T06:52:15.000Z</time>
      </trkpt>
      <trkpt lat="43.44351" lon="6.42164">
        <ele>77.2</ele>
        <time>2021-06-23T06:53:51.000Z</time>
      </trkpt>
      <trkpt lat="43.44344" lon="6.42157">
        <ele>77.9</ele>
        <time>2021-06-23T06:54:04.000Z</time>
      </trkpt>
      <trkpt lat="43.44339" lon="6.42143">
        <ele>78.1</ele>
        <time>2021-06-23T06:54:14.000Z</time>
      </trkpt>
      <trkpt lat="43.44332" lon="6.42133">
        <ele>78.4</ele>
        <time>2021-06-23T06:54:24.000Z</time>
      </trkpt>
      <trkpt lat="43.44326" lon="6.42124">
        <ele>78.3</ele>
        <time>2021-06-23T06:54:37.000Z</time>
      </trkpt>
      <trkpt lat="43.44328" lon="6.42111">
        <ele>77.5</ele>
        <time>2021-06-23T06:54:50.000Z</time>
      </trkpt>
      <trkpt lat="43.44323" lon="6.42099">
        <ele>77.7</ele>
        <time>2021-06-23T06:55:00.000Z</time>
      </trkpt>
      <trkpt lat="43.44316" lon="6.42091">
        <ele>78.1</ele>
        <time>2021-06-23T06:55:09.000Z</time>
      </trkpt>
      <trkpt lat="43.44308" lon="6.42083">
        <ele>78.2</ele>
        <time>2021-06-23T06:55:19.000Z</time>
      </trkpt>
      <trkpt lat="43.443" lon="6.42076">
        <ele>78.5</ele>
        <time>2021-06-23T06:55:27.000Z</time>
      </trkpt>
      <trkpt lat="43.44291" lon="6.42071">
        <ele>78.6</ele>
        <time>2021-06-23T06:55:35.000Z</time>
      </trkpt>
      <trkpt lat="43.44283" lon="6.42065">
        <ele>78.6</ele>
        <time>2021-06-23T06:55:44.000Z</time>
      </trkpt>
      <trkpt lat="43.44274" lon="6.42061">
        <ele>78.6</ele>
        <time>2021-06-23T06:55:53.000Z</time>
      </trkpt>
      <trkpt lat="43.44266" lon="6.42055">
        <ele>78.6</ele>
        <time>2021-06-23T06:56:00.000Z</time>
      </trkpt>
      <trkpt lat="43.44259" lon="6.42047">
        <ele>78.7</ele>
        <time>2021-06-23T06:56:09.000Z</time>
      </trkpt>
      <trkpt lat="43.44251" lon="6.42038">
        <ele>79</ele>
        <time>2021-06-23T06:56:18.000Z</time>
      </trkpt>
      <trkpt lat="43.44244" lon="6.42029">
        <ele>79.2</ele>
        <time>2021-06-23T06:56:27.000Z</time>
      </trkpt>
      <trkpt lat="43.44236" lon="6.4202">
        <ele>79.8</ele>
        <time>2021-06-23T06:56:36.000Z</time>
      </trkpt>
      <trkpt lat="43.4423" lon="6.4201">
        <ele>80.2</ele>
        <time>2021-06-23T06:56:45.000Z</time>
      </trkpt>
      <trkpt lat="43.44231" lon="6.41997">
        <ele>81.8</ele>
        <time>2021-06-23T06:56:57.000Z</time>
      </trkpt>
      <trkpt lat="43.44232" lon="6.41985">
        <ele>83.8</ele>
        <time>2021-06-23T06:57:08.000Z</time>
      </trkpt>
      <trkpt lat="43.44227" lon="6.41974">
        <ele>84.1</ele>
        <time>2021-06-23T06:57:17.000Z</time>
      </trkpt>
      <trkpt lat="43.44218" lon="6.41969">
        <ele>84.1</ele>
        <time>2021-06-23T06:57:23.000Z</time>
      </trkpt>
      <trkpt lat="43.4421" lon="6.41962">
        <ele>83.6</ele>
        <time>2021-06-23T06:57:30.000Z</time>
      </trkpt>
      <trkpt lat="43.442" lon="6.4196">
        <ele>83.4</ele>
        <time>2021-06-23T06:57:40.000Z</time>
      </trkpt>
      <trkpt lat="43.4419" lon="6.41958">
        <ele>83.4</ele>
        <time>2021-06-23T06:57:48.000Z</time>
      </trkpt>
      <trkpt lat="43.44181" lon="6.41953">
        <ele>83.5</ele>
        <time>2021-06-23T06:58:01.000Z</time>
      </trkpt>
      <trkpt lat="43.44179" lon="6.4194">
        <ele>83</ele>
        <time>2021-06-23T06:58:16.000Z</time>
      </trkpt>
      <trkpt lat="43.44175" lon="6.41929">
        <ele>84.1</ele>
        <time>2021-06-23T06:58:32.000Z</time>
      </trkpt>
      <trkpt lat="43.44166" lon="6.41922">
        <ele>84.8</ele>
        <time>2021-06-23T06:58:57.000Z</time>
      </trkpt>
      <trkpt lat="43.44159" lon="6.41912">
        <ele>85.4</ele>
        <time>2021-06-23T06:59:06.000Z</time>
      </trkpt>
      <trkpt lat="43.44152" lon="6.41902">
        <ele>86.2</ele>
        <time>2021-06-23T06:59:19.000Z</time>
      </trkpt>
      <trkpt lat="43.44144" lon="6.41894">
        <ele>86</ele>
        <time>2021-06-23T06:59:36.000Z</time>
      </trkpt>
      <trkpt lat="43.44136" lon="6.41888">
        <ele>86</ele>
        <time>2021-06-23T06:59:44.000Z</time>
      </trkpt>
      <trkpt lat="43.44127" lon="6.41884">
        <ele>87</ele>
        <time>2021-06-23T06:59:56.000Z</time>
      </trkpt>
      <trkpt lat="43.44115" lon="6.4188">
        <ele>88</ele>
        <time>2021-06-23T07:00:08.000Z</time>
      </trkpt>
      <trkpt lat="43.44104" lon="6.41877">
        <ele>90</ele>
        <time>2021-06-23T07:00:24.000Z</time>
      </trkpt>
      <trkpt lat="43.44095" lon="6.41874">
        <ele>90.7</ele>
        <time>2021-06-23T07:00:38.000Z</time>
      </trkpt>
      <trkpt lat="43.44086" lon="6.41873">
        <ele>90.8</ele>
        <time>2021-06-23T07:00:46.000Z</time>
      </trkpt>
      <trkpt lat="43.44073" lon="6.41866">
        <ele>92</ele>
        <time>2021-06-23T07:01:07.000Z</time>
      </trkpt>
      <trkpt lat="43.44065" lon="6.41861">
        <ele>93</ele>
        <time>2021-06-23T07:01:16.000Z</time>
      </trkpt>
      <trkpt lat="43.44056" lon="6.41858">
        <ele>93.7</ele>
        <time>2021-06-23T07:01:30.000Z</time>
      </trkpt>
      <trkpt lat="43.44046" lon="6.41854">
        <ele>94.4</ele>
        <time>2021-06-23T07:01:43.000Z</time>
      </trkpt>
      <trkpt lat="43.44037" lon="6.41849">
        <ele>94.9</ele>
        <time>2021-06-23T07:01:53.000Z</time>
      </trkpt>
      <trkpt lat="43.44027" lon="6.41847">
        <ele>95.3</ele>
        <time>2021-06-23T07:02:01.000Z</time>
      </trkpt>
      <trkpt lat="43.4402" lon="6.41838">
        <ele>96</ele>
        <time>2021-06-23T07:02:12.000Z</time>
      </trkpt>
      <trkpt lat="43.44012" lon="6.4183">
        <ele>97.3</ele>
        <time>2021-06-23T07:02:23.000Z</time>
      </trkpt>
      <trkpt lat="43.44004" lon="6.41824">
        <ele>98.2</ele>
        <time>2021-06-23T07:02:34.000Z</time>
      </trkpt>
      <trkpt lat="43.44001" lon="6.41812">
        <ele>98.9</ele>
        <time>2021-06-23T07:02:46.000Z</time>
      </trkpt>
      <trkpt lat="43.43992" lon="6.41803">
        <ele>99</ele>
        <time>2021-06-23T07:02:57.000Z</time>
      </trkpt>
      <trkpt lat="43.43986" lon="6.41794">
        <ele>100.1</ele>
        <time>2021-06-23T07:03:09.000Z</time>
      </trkpt>
      <trkpt lat="43.43978" lon="6.41787">
        <ele>100.8</ele>
        <time>2021-06-23T07:03:21.000Z</time>
      </trkpt>
      <trkpt lat="43.4397" lon="6.41778">
        <ele>101</ele>
        <time>2021-06-23T07:03:38.000Z</time>
      </trkpt>
      <trkpt lat="43.43959" lon="6.41779">
        <ele>102</ele>
        <time>2021-06-23T07:03:46.000Z</time>
      </trkpt>
      <trkpt lat="43.4395" lon="6.41781">
        <ele>102</ele>
        <time>2021-06-23T07:03:54.000Z</time>
      </trkpt>
      <trkpt lat="43.43938" lon="6.41783">
        <ele>102</ele>
        <time>2021-06-23T07:04:06.000Z</time>
      </trkpt>
      <trkpt lat="43.43927" lon="6.41785">
        <ele>102</ele>
        <time>2021-06-23T07:04:18.000Z</time>
      </trkpt>
      <trkpt lat="43.43917" lon="6.41783">
        <ele>103</ele>
        <time>2021-06-23T07:04:30.000Z</time>
      </trkpt>
      <trkpt lat="43.43906" lon="6.41785">
        <ele>103</ele>
        <time>2021-06-23T07:04:38.000Z</time>
      </trkpt>
      <trkpt lat="43.43894" lon="6.41784">
        <ele>103</ele>
        <time>2021-06-23T07:04:46.000Z</time>
      </trkpt>
      <trkpt lat="43.43883" lon="6.41787">
        <ele>104</ele>
        <time>2021-06-23T07:04:54.000Z</time>
      </trkpt>
      <trkpt lat="43.43873" lon="6.41789">
        <ele>104</ele>
        <time>2021-06-23T07:05:02.000Z</time>
      </trkpt>
      <trkpt lat="43.43863" lon="6.41791">
        <ele>104</ele>
        <time>2021-06-23T07:05:10.000Z</time>
      </trkpt>
      <trkpt lat="43.43853" lon="6.41793">
        <ele>105</ele>
        <time>2021-06-23T07:05:18.000Z</time>
      </trkpt>
      <trkpt lat="43.43842" lon="6.41794">
        <ele>105</ele>
        <time>2021-06-23T07:05:26.000Z</time>
      </trkpt>
      <trkpt lat="43.43829" lon="6.41798">
        <ele>106</ele>
        <time>2021-06-23T07:05:38.000Z</time>
      </trkpt>
      <trkpt lat="43.43818" lon="6.41799">
        <ele>106</ele>
        <time>2021-06-23T07:05:46.000Z</time>
      </trkpt>
      <trkpt lat="43.43808" lon="6.41799">
        <ele>107</ele>
        <time>2021-06-23T07:05:54.000Z</time>
      </trkpt>
      <trkpt lat="43.43798" lon="6.41799">
        <ele>107</ele>
        <time>2021-06-23T07:06:02.000Z</time>
      </trkpt>
      <trkpt lat="43.43786" lon="6.41801">
        <ele>108</ele>
        <time>2021-06-23T07:06:14.000Z</time>
      </trkpt>
      <trkpt lat="43.43777" lon="6.41804">
        <ele>108</ele>
        <time>2021-06-23T07:06:22.000Z</time>
      </trkpt>
      <trkpt lat="43.43766" lon="6.41809">
        <ele>109</ele>
        <time>2021-06-23T07:06:34.000Z</time>
      </trkpt>
      <trkpt lat="43.43756" lon="6.41812">
        <ele>109</ele>
        <time>2021-06-23T07:06:46.000Z</time>
      </trkpt>
      <trkpt lat="43.43744" lon="6.41819">
        <ele>110</ele>
        <time>2021-06-23T07:07:02.000Z</time>
      </trkpt>
      <trkpt lat="43.43731" lon="6.41824">
        <ele>110</ele>
        <time>2021-06-23T07:07:14.000Z</time>
      </trkpt>
      <trkpt lat="43.43722" lon="6.41828">
        <ele>110</ele>
        <time>2021-06-23T07:07:22.000Z</time>
      </trkpt>
      <trkpt lat="43.43713" lon="6.41835">
        <ele>111</ele>
        <time>2021-06-23T07:07:30.000Z</time>
      </trkpt>
      <trkpt lat="43.43702" lon="6.41843">
        <ele>112</ele>
        <time>2021-06-23T07:07:42.000Z</time>
      </trkpt>
      <trkpt lat="43.43701" lon="6.41856">
        <ele>112.6</ele>
        <time>2021-06-23T07:07:54.000Z</time>
      </trkpt>
      <trkpt lat="43.43694" lon="6.41864">
        <ele>113.3</ele>
        <time>2021-06-23T07:08:04.000Z</time>
      </trkpt>
      <trkpt lat="43.43686" lon="6.41872">
        <ele>113.8</ele>
        <time>2021-06-23T07:08:13.000Z</time>
      </trkpt>
      <trkpt lat="43.43677" lon="6.41876">
        <ele>114.2</ele>
        <time>2021-06-23T07:08:21.000Z</time>
      </trkpt>
      <trkpt lat="43.43668" lon="6.41879">
        <ele>114.4</ele>
        <time>2021-06-23T07:08:33.000Z</time>
      </trkpt>
      <trkpt lat="43.43659" lon="6.4188">
        <ele>114.5</ele>
        <time>2021-06-23T07:08:42.000Z</time>
      </trkpt>
      <trkpt lat="43.43651" lon="6.41886">
        <ele>114.4</ele>
        <time>2021-06-23T07:09:11.000Z</time>
      </trkpt>
      <trkpt lat="43.43642" lon="6.41889">
        <ele>113.9</ele>
        <time>2021-06-23T07:11:18.000Z</time>
      </trkpt>
      <trkpt lat="43.43644" lon="6.41901">
        <ele>114</ele>
        <time>2021-06-23T07:13:35.000Z</time>
      </trkpt>
      <trkpt lat="43.43641" lon="6.41914">
        <ele>114.1</ele>
        <time>2021-06-23T07:13:48.000Z</time>
      </trkpt>
      <trkpt lat="43.43637" lon="6.41927">
        <ele>114</ele>
        <time>2021-06-23T07:13:58.000Z</time>
      </trkpt>
      <trkpt lat="43.43634" lon="6.4194">
        <ele>114</ele>
        <time>2021-06-23T07:14:09.000Z</time>
      </trkpt>
      <trkpt lat="43.43631" lon="6.41952">
        <ele>114.2</ele>
        <time>2021-06-23T07:14:21.000Z</time>
      </trkpt>
      <trkpt lat="43.43627" lon="6.41965">
        <ele>114</ele>
        <time>2021-06-23T07:14:32.000Z</time>
      </trkpt>
      <trkpt lat="43.43626" lon="6.41977">
        <ele>113.8</ele>
        <time>2021-06-23T07:14:41.000Z</time>
      </trkpt>
      <trkpt lat="43.43623" lon="6.41989">
        <ele>113.4</ele>
        <time>2021-06-23T07:14:50.000Z</time>
      </trkpt>
      <trkpt lat="43.43625" lon="6.42002">
        <ele>113.8</ele>
        <time>2021-06-23T07:14:59.000Z</time>
      </trkpt>
      <trkpt lat="43.43625" lon="6.42015">
        <ele>113.4</ele>
        <time>2021-06-23T07:15:09.000Z</time>
      </trkpt>
      <trkpt lat="43.43627" lon="6.42027">
        <ele>113.6</ele>
        <time>2021-06-23T07:15:16.000Z</time>
      </trkpt>
      <trkpt lat="43.43629" lon="6.4204">
        <ele>113.3</ele>
        <time>2021-06-23T07:15:25.000Z</time>
      </trkpt>
      <trkpt lat="43.43632" lon="6.42054">
        <ele>113.1</ele>
        <time>2021-06-23T07:15:34.000Z</time>
      </trkpt>
      <trkpt lat="43.43631" lon="6.42067">
        <ele>113</ele>
        <time>2021-06-23T07:15:42.000Z</time>
      </trkpt>
      <trkpt lat="43.43633" lon="6.42081">
        <ele>113.1</ele>
        <time>2021-06-23T07:15:50.000Z</time>
      </trkpt>
      <trkpt lat="43.43631" lon="6.42094">
        <ele>113.5</ele>
        <time>2021-06-23T07:15:58.000Z</time>
      </trkpt>
      <trkpt lat="43.4363" lon="6.42107">
        <ele>113.7</ele>
        <time>2021-06-23T07:16:07.000Z</time>
      </trkpt>
      <trkpt lat="43.43626" lon="6.42119">
        <ele>113.7</ele>
        <time>2021-06-23T07:16:15.000Z</time>
      </trkpt>
      <trkpt lat="43.43624" lon="6.42132">
        <ele>113.6</ele>
        <time>2021-06-23T07:16:24.000Z</time>
      </trkpt>
      <trkpt lat="43.4362" lon="6.42145">
        <ele>113.6</ele>
        <time>2021-06-23T07:16:33.000Z</time>
      </trkpt>
      <trkpt lat="43.4362" lon="6.42158">
        <ele>113.7</ele>
        <time>2021-06-23T07:16:44.000Z</time>
      </trkpt>
      <trkpt lat="43.43612" lon="6.42167">
        <ele>113.6</ele>
        <time>2021-06-23T07:16:51.000Z</time>
      </trkpt>
      <trkpt lat="43.43606" lon="6.42177">
        <ele>113.7</ele>
        <time>2021-06-23T07:17:00.000Z</time>
      </trkpt>
      <trkpt lat="43.43604" lon="6.42189">
        <ele>113.4</ele>
        <time>2021-06-23T07:17:14.000Z</time>
      </trkpt>
      <trkpt lat="43.43597" lon="6.42197">
        <ele>113.4</ele>
        <time>2021-06-23T07:17:25.000Z</time>
      </trkpt>
      <trkpt lat="43.4359" lon="6.42206">
        <ele>112.9</ele>
        <time>2021-06-23T07:17:38.000Z</time>
      </trkpt>
      <trkpt lat="43.43582" lon="6.42213">
        <ele>113.2</ele>
        <time>2021-06-23T07:17:47.000Z</time>
      </trkpt>
      <trkpt lat="43.43576" lon="6.42223">
        <ele>113.2</ele>
        <time>2021-06-23T07:18:01.000Z</time>
      </trkpt>
      <trkpt lat="43.43568" lon="6.4223">
        <ele>113.2</ele>
        <time>2021-06-23T07:18:09.000Z</time>
      </trkpt>
      <trkpt lat="43.43561" lon="6.42239">
        <ele>113.1</ele>
        <time>2021-06-23T07:18:17.000Z</time>
      </trkpt>
      <trkpt lat="43.43551" lon="6.42241">
        <ele>113.1</ele>
        <time>2021-06-23T07:18:23.000Z</time>
      </trkpt>
      <trkpt lat="43.43541" lon="6.42241">
        <ele>113.3</ele>
        <time>2021-06-23T07:18:28.000Z</time>
      </trkpt>
      <trkpt lat="43.43532" lon="6.42243">
        <ele>112.9</ele>
        <time>2021-06-23T07:18:34.000Z</time>
      </trkpt>
      <trkpt lat="43.43522" lon="6.42245">
        <ele>113.1</ele>
        <time>2021-06-23T07:18:43.000Z</time>
      </trkpt>
      <trkpt lat="43.43512" lon="6.42244">
        <ele>113.2</ele>
        <time>2021-06-23T07:18:52.000Z</time>
      </trkpt>
      <trkpt lat="43.43503" lon="6.42239">
        <ele>113.3</ele>
        <time>2021-06-23T07:18:58.000Z</time>
      </trkpt>
      <trkpt lat="43.43495" lon="6.42233">
        <ele>113.1</ele>
        <time>2021-06-23T07:19:06.000Z</time>
      </trkpt>
      <trkpt lat="43.43487" lon="6.42228">
        <ele>113.7</ele>
        <time>2021-06-23T07:20:44.000Z</time>
      </trkpt>
      <trkpt lat="43.4348" lon="6.4222">
        <ele>113.6</ele>
        <time>2021-06-23T07:20:56.000Z</time>
      </trkpt>
      <trkpt lat="43.43474" lon="6.4221">
        <ele>114</ele>
        <time>2021-06-23T07:22:31.000Z</time>
      </trkpt>
      <trkpt lat="43.43469" lon="6.42199">
        <ele>114.6</ele>
        <time>2021-06-23T07:22:44.000Z</time>
      </trkpt>
      <trkpt lat="43.43462" lon="6.42191">
        <ele>114.2</ele>
        <time>2021-06-23T07:22:53.000Z</time>
      </trkpt>
      <trkpt lat="43.43455" lon="6.42181">
        <ele>114.4</ele>
        <time>2021-06-23T07:23:03.000Z</time>
      </trkpt>
      <trkpt lat="43.43452" lon="6.42169">
        <ele>114.6</ele>
        <time>2021-06-23T07:23:12.000Z</time>
      </trkpt>
      <trkpt lat="43.4345" lon="6.42156">
        <ele>114</ele>
        <time>2021-06-23T07:24:10.000Z</time>
      </trkpt>
      <trkpt lat="43.4345" lon="6.42143">
        <ele>113.8</ele>
        <time>2021-06-23T07:24:20.000Z</time>
      </trkpt>
      <trkpt lat="43.43453" lon="6.42131">
        <ele>113.5</ele>
        <time>2021-06-23T07:24:30.000Z</time>
      </trkpt>
      <trkpt lat="43.43452" lon="6.42118">
        <ele>113.2</ele>
        <time>2021-06-23T07:24:40.000Z</time>
      </trkpt>
      <trkpt lat="43.43454" lon="6.42106">
        <ele>113.1</ele>
        <time>2021-06-23T07:24:49.000Z</time>
      </trkpt>
      <trkpt lat="43.43454" lon="6.42092">
        <ele>113.5</ele>
        <time>2021-06-23T07:24:58.000Z</time>
      </trkpt>
      <trkpt lat="43.43456" lon="6.42079">
        <ele>113.1</ele>
        <time>2021-06-23T07:25:08.000Z</time>
      </trkpt>
      <trkpt lat="43.43458" lon="6.42066">
        <ele>112.8</ele>
        <time>2021-06-23T07:25:17.000Z</time>
      </trkpt>
      <trkpt lat="43.43462" lon="6.42055">
        <ele>112.4</ele>
        <time>2021-06-23T07:25:27.000Z</time>
      </trkpt>
      <trkpt lat="43.43466" lon="6.42043">
        <ele>112.2</ele>
        <time>2021-06-23T07:25:37.000Z</time>
      </trkpt>
      <trkpt lat="43.43469" lon="6.42032">
        <ele>112.1</ele>
        <time>2021-06-23T07:25:45.000Z</time>
      </trkpt>
      <trkpt lat="43.43472" lon="6.42019">
        <ele>111.4</ele>
        <time>2021-06-23T07:25:54.000Z</time>
      </trkpt>
      <trkpt lat="43.43476" lon="6.42007">
        <ele>110.9</ele>
        <time>2021-06-23T07:26:04.000Z</time>
      </trkpt>
      <trkpt lat="43.43481" lon="6.41996">
        <ele>110.6</ele>
        <time>2021-06-23T07:26:14.000Z</time>
      </trkpt>
      <trkpt lat="43.43488" lon="6.41986">
        <ele>110.4</ele>
        <time>2021-06-23T07:26:22.000Z</time>
      </trkpt>
      <trkpt lat="43.43494" lon="6.41976">
        <ele>110.3</ele>
        <time>2021-06-23T07:26:32.000Z</time>
      </trkpt>
      <trkpt lat="43.43502" lon="6.41969">
        <ele>110</ele>
        <time>2021-06-23T07:26:41.000Z</time>
      </trkpt>
      <trkpt lat="43.43509" lon="6.41962">
        <ele>109.6</ele>
        <time>2021-06-23T07:26:52.000Z</time>
      </trkpt>
      <trkpt lat="43.43517" lon="6.41956">
        <ele>109.2</ele>
        <time>2021-06-23T07:27:02.000Z</time>
      </trkpt>
      <trkpt lat="43.43525" lon="6.41947">
        <ele>109.1</ele>
        <time>2021-06-23T07:27:13.000Z</time>
      </trkpt>
      <trkpt lat="43.43532" lon="6.4194">
        <ele>108.8</ele>
        <time>2021-06-23T07:27:21.000Z</time>
      </trkpt>
      <trkpt lat="43.43539" lon="6.41931">
        <ele>108.6</ele>
        <time>2021-06-23T07:27:31.000Z</time>
      </trkpt>
      <trkpt lat="43.43546" lon="6.4192">
        <ele>108.4</ele>
        <time>2021-06-23T07:27:41.000Z</time>
      </trkpt>
      <trkpt lat="43.43553" lon="6.41913">
        <ele>108</ele>
        <time>2021-06-23T07:27:50.000Z</time>
      </trkpt>
      <trkpt lat="43.4356" lon="6.41903">
        <ele>107.8</ele>
        <time>2021-06-23T07:27:59.000Z</time>
      </trkpt>
      <trkpt lat="43.43568" lon="6.41899">
        <ele>107.7</ele>
        <time>2021-06-23T07:28:52.000Z</time>
      </trkpt>
      <trkpt lat="43.43578" lon="6.41896">
        <ele>108.7</ele>
        <time>2021-06-23T07:29:04.000Z</time>
      </trkpt>
      <trkpt lat="43.43588" lon="6.41891">
        <ele>110</ele>
        <time>2021-06-23T07:29:20.000Z</time>
      </trkpt>
      <trkpt lat="43.43597" lon="6.41888">
        <ele>111.6</ele>
        <time>2021-06-23T07:29:34.000Z</time>
      </trkpt>
      <trkpt lat="43.43607" lon="6.41891">
        <ele>112.6</ele>
        <time>2021-06-23T07:29:44.000Z</time>
      </trkpt>
      <trkpt lat="43.43616" lon="6.41886">
        <ele>113.9</ele>
        <time>2021-06-23T07:29:58.000Z</time>
      </trkpt>
      <trkpt lat="43.43624" lon="6.41881">
        <ele>114.5</ele>
        <time>2021-06-23T07:30:05.000Z</time>
      </trkpt>
      <trkpt lat="43.43633" lon="6.41874">
        <ele>114.5</ele>
        <time>2021-06-23T07:30:32.000Z</time>
      </trkpt>
      <trkpt lat="43.43636" lon="6.41861">
        <ele>114.8</ele>
        <time>2021-06-23T07:30:46.000Z</time>
      </trkpt>
      <trkpt lat="43.43641" lon="6.41851">
        <ele>115.4</ele>
        <time>2021-06-23T07:30:55.000Z</time>
      </trkpt>
      <trkpt lat="43.43647" lon="6.4184">
        <ele>116</ele>
        <time>2021-06-23T07:31:06.000Z</time>
      </trkpt>
      <trkpt lat="43.43651" lon="6.41828">
        <ele>116.5</ele>
        <time>2021-06-23T07:31:18.000Z</time>
      </trkpt>
      <trkpt lat="43.43651" lon="6.41815">
        <ele>117.2</ele>
        <time>2021-06-23T07:31:30.000Z</time>
      </trkpt>
      <trkpt lat="43.43658" lon="6.41807">
        <ele>117.8</ele>
        <time>2021-06-23T07:31:40.000Z</time>
      </trkpt>
      <trkpt lat="43.43663" lon="6.41796">
        <ele>118.2</ele>
        <time>2021-06-23T07:31:49.000Z</time>
      </trkpt>
      <trkpt lat="43.43671" lon="6.41787">
        <ele>119.1</ele>
        <time>2021-06-23T07:31:59.000Z</time>
      </trkpt>
      <trkpt lat="43.43677" lon="6.41778">
        <ele>119.7</ele>
        <time>2021-06-23T07:32:07.000Z</time>
      </trkpt>
      <trkpt lat="43.43683" lon="6.41768">
        <ele>120.4</ele>
        <time>2021-06-23T07:32:18.000Z</time>
      </trkpt>
      <trkpt lat="43.4369" lon="6.41759">
        <ele>120.9</ele>
        <time>2021-06-23T07:32:30.000Z</time>
      </trkpt>
      <trkpt lat="43.43696" lon="6.4175">
        <ele>121.6</ele>
        <time>2021-06-23T07:32:41.000Z</time>
      </trkpt>
      <trkpt lat="43.43703" lon="6.41741">
        <ele>122.3</ele>
        <time>2021-06-23T07:32:49.000Z</time>
      </trkpt>
      <trkpt lat="43.4371" lon="6.41732">
        <ele>122.6</ele>
        <time>2021-06-23T07:32:57.000Z</time>
      </trkpt>
      <trkpt lat="43.43716" lon="6.41723">
        <ele>123.4</ele>
        <time>2021-06-23T07:33:06.000Z</time>
      </trkpt>
      <trkpt lat="43.43724" lon="6.41717">
        <ele>124</ele>
        <time>2021-06-23T07:33:15.000Z</time>
      </trkpt>
      <trkpt lat="43.43731" lon="6.41709">
        <ele>124.7</ele>
        <time>2021-06-23T07:33:27.000Z</time>
      </trkpt>
      <trkpt lat="43.43738" lon="6.417">
        <ele>125.3</ele>
        <time>2021-06-23T07:33:37.000Z</time>
      </trkpt>
      <trkpt lat="43.43747" lon="6.41697">
        <ele>126.3</ele>
        <time>2021-06-23T07:33:51.000Z</time>
      </trkpt>
      <trkpt lat="43.43756" lon="6.41692">
        <ele>126.5</ele>
        <time>2021-06-23T07:34:02.000Z</time>
      </trkpt>
      <trkpt lat="43.43764" lon="6.41686">
        <ele>126.9</ele>
        <time>2021-06-23T07:34:09.000Z</time>
      </trkpt>
      <trkpt lat="43.43772" lon="6.41678">
        <ele>127.6</ele>
        <time>2021-06-23T07:34:18.000Z</time>
      </trkpt>
      <trkpt lat="43.43778" lon="6.41668">
        <ele>127.8</ele>
        <time>2021-06-23T07:34:28.000Z</time>
      </trkpt>
      <trkpt lat="43.43783" lon="6.41658">
        <ele>128.1</ele>
        <time>2021-06-23T07:34:36.000Z</time>
      </trkpt>
      <trkpt lat="43.43789" lon="6.41646">
        <ele>128.6</ele>
        <time>2021-06-23T07:34:46.000Z</time>
      </trkpt>
      <trkpt lat="43.43794" lon="6.41635">
        <ele>129</ele>
        <time>2021-06-23T07:34:56.000Z</time>
      </trkpt>
      <trkpt lat="43.43799" lon="6.41624">
        <ele>129.5</ele>
        <time>2021-06-23T07:35:05.000Z</time>
      </trkpt>
      <trkpt lat="43.43802" lon="6.41611">
        <ele>130</ele>
        <time>2021-06-23T07:35:15.000Z</time>
      </trkpt>
      <trkpt lat="43.43802" lon="6.41598">
        <ele>130.6</ele>
        <time>2021-06-23T07:35:24.000Z</time>
      </trkpt>
      <trkpt lat="43.43807" lon="6.41587">
        <ele>130.8</ele>
        <time>2021-06-23T07:35:32.000Z</time>
      </trkpt>
      <trkpt lat="43.43811" lon="6.41576">
        <ele>131.6</ele>
        <time>2021-06-23T07:35:42.000Z</time>
      </trkpt>
      <trkpt lat="43.43813" lon="6.41563">
        <ele>131.9</ele>
        <time>2021-06-23T07:35:52.000Z</time>
      </trkpt>
      <trkpt lat="43.43819" lon="6.41553">
        <ele>131.9</ele>
        <time>2021-06-23T07:36:02.000Z</time>
      </trkpt>
      <trkpt lat="43.43826" lon="6.41546">
        <ele>131.7</ele>
        <time>2021-06-23T07:36:13.000Z</time>
      </trkpt>
      <trkpt lat="43.43835" lon="6.41539">
        <ele>132.2</ele>
        <time>2021-06-23T07:36:24.000Z</time>
      </trkpt>
      <trkpt lat="43.43843" lon="6.41532">
        <ele>132.4</ele>
        <time>2021-06-23T07:36:33.000Z</time>
      </trkpt>
      <trkpt lat="43.43851" lon="6.41525">
        <ele>133</ele>
        <time>2021-06-23T07:36:44.000Z</time>
      </trkpt>
      <trkpt lat="43.43858" lon="6.41517">
        <ele>133.2</ele>
        <time>2021-06-23T07:36:53.000Z</time>
      </trkpt>
      <trkpt lat="43.43866" lon="6.4151">
        <ele>133.9</ele>
        <time>2021-06-23T07:37:02.000Z</time>
      </trkpt>
      <trkpt lat="43.43873" lon="6.41501">
        <ele>134.2</ele>
        <time>2021-06-23T07:37:12.000Z</time>
      </trkpt>
      <trkpt lat="43.4388" lon="6.41492">
        <ele>134.5</ele>
        <time>2021-06-23T07:37:21.000Z</time>
      </trkpt>
      <trkpt lat="43.43886" lon="6.41482">
        <ele>135.5</ele>
        <time>2021-06-23T07:37:31.000Z</time>
      </trkpt>
      <trkpt lat="43.43893" lon="6.41474">
        <ele>135.9</ele>
        <time>2021-06-23T07:37:41.000Z</time>
      </trkpt>
      <trkpt lat="43.43902" lon="6.41467">
        <ele>136.3</ele>
        <time>2021-06-23T07:37:50.000Z</time>
      </trkpt>
      <trkpt lat="43.43909" lon="6.41459">
        <ele>137.1</ele>
        <time>2021-06-23T07:38:02.000Z</time>
      </trkpt>
      <trkpt lat="43.43919" lon="6.4146">
        <ele>137.9</ele>
        <time>2021-06-23T07:38:13.000Z</time>
      </trkpt>
      <trkpt lat="43.43927" lon="6.41465">
        <ele>138.7</ele>
        <time>2021-06-23T07:38:25.000Z</time>
      </trkpt>
      <trkpt lat="43.43936" lon="6.4147">
        <ele>139.3</ele>
        <time>2021-06-23T07:38:37.000Z</time>
      </trkpt>
      <trkpt lat="43.43945" lon="6.41477">
        <ele>139.8</ele>
        <time>2021-06-23T07:38:50.000Z</time>
      </trkpt>
      <trkpt lat="43.43954" lon="6.41483">
        <ele>140.3</ele>
        <time>2021-06-23T07:39:02.000Z</time>
      </trkpt>
      <trkpt lat="43.43961" lon="6.4149">
        <ele>141.3</ele>
        <time>2021-06-23T07:39:10.000Z</time>
      </trkpt>
      <trkpt lat="43.4397" lon="6.41494">
        <ele>141.7</ele>
        <time>2021-06-23T07:39:19.000Z</time>
      </trkpt>
      <trkpt lat="43.43977" lon="6.41503">
        <ele>141.9</ele>
        <time>2021-06-23T07:39:28.000Z</time>
      </trkpt>
      <trkpt lat="43.43985" lon="6.41509">
        <ele>142.7</ele>
        <time>2021-06-23T07:39:38.000Z</time>
      </trkpt>
      <trkpt lat="43.43994" lon="6.41515">
        <ele>143</ele>
        <time>2021-06-23T07:39:48.000Z</time>
      </trkpt>
      <trkpt lat="43.44003" lon="6.41521">
        <ele>143</ele>
        <time>2021-06-23T07:39:59.000Z</time>
      </trkpt>
      <trkpt lat="43.44011" lon="6.41527">
        <ele>143.2</ele>
        <time>2021-06-23T07:40:08.000Z</time>
      </trkpt>
      <trkpt lat="43.44019" lon="6.41533">
        <ele>143.5</ele>
        <time>2021-06-23T07:40:18.000Z</time>
      </trkpt>
      <trkpt lat="43.44028" lon="6.41539">
        <ele>144.3</ele>
        <time>2021-06-23T07:40:29.000Z</time>
      </trkpt>
      <trkpt lat="43.44037" lon="6.41534">
        <ele>144.8</ele>
        <time>2021-06-23T07:40:36.000Z</time>
      </trkpt>
      <trkpt lat="43.44045" lon="6.41527">
        <ele>145.3</ele>
        <time>2021-06-23T07:40:48.000Z</time>
      </trkpt>
      <trkpt lat="43.44052" lon="6.41517">
        <ele>146</ele>
        <time>2021-06-23T07:40:59.000Z</time>
      </trkpt>
      <trkpt lat="43.4406" lon="6.41507">
        <ele>146.7</ele>
        <time>2021-06-23T07:41:08.000Z</time>
      </trkpt>
      <trkpt lat="43.44066" lon="6.41498">
        <ele>147.6</ele>
        <time>2021-06-23T07:41:19.000Z</time>
      </trkpt>
      <trkpt lat="43.44069" lon="6.41485">
        <ele>148.2</ele>
        <time>2021-06-23T07:41:28.000Z</time>
      </trkpt>
      <trkpt lat="43.44073" lon="6.41474">
        <ele>148.3</ele>
        <time>2021-06-23T07:41:38.000Z</time>
      </trkpt>
      <trkpt lat="43.44075" lon="6.41461">
        <ele>148.4</ele>
        <time>2021-06-23T07:41:47.000Z</time>
      </trkpt>
      <trkpt lat="43.4408" lon="6.4145">
        <ele>148.7</ele>
        <time>2021-06-23T07:42:23.000Z</time>
      </trkpt>
      <trkpt lat="43.44084" lon="6.41438">
        <ele>149</ele>
        <time>2021-06-23T07:42:33.000Z</time>
      </trkpt>
      <trkpt lat="43.44089" lon="6.41428">
        <ele>149.1</ele>
        <time>2021-06-23T07:42:41.000Z</time>
      </trkpt>
      <trkpt lat="43.44094" lon="6.41417">
        <ele>149.5</ele>
        <time>2021-06-23T07:42:52.000Z</time>
      </trkpt>
      <trkpt lat="43.44099" lon="6.41407">
        <ele>150.6</ele>
        <time>2021-06-23T07:44:24.000Z</time>
      </trkpt>
      <trkpt lat="43.44109" lon="6.41404">
        <ele>150.3</ele>
        <time>2021-06-23T07:44:34.000Z</time>
      </trkpt>
      <trkpt lat="43.44119" lon="6.41405">
        <ele>150.6</ele>
        <time>2021-06-23T07:44:44.000Z</time>
      </trkpt>
      <trkpt lat="43.44129" lon="6.41407">
        <ele>151.2</ele>
        <time>2021-06-23T07:44:55.000Z</time>
      </trkpt>
      <trkpt lat="43.44138" lon="6.4141">
        <ele>151.3</ele>
        <time>2021-06-23T07:45:06.000Z</time>
      </trkpt>
      <trkpt lat="43.44146" lon="6.41413">
        <ele>151.7</ele>
        <time>2021-06-23T07:45:15.000Z</time>
      </trkpt>
      <trkpt lat="43.44156" lon="6.41416">
        <ele>152.2</ele>
        <time>2021-06-23T07:45:28.000Z</time>
      </trkpt>
      <trkpt lat="43.44163" lon="6.41425">
        <ele>152.6</ele>
        <time>2021-06-23T07:45:39.000Z</time>
      </trkpt>
      <trkpt lat="43.44171" lon="6.41433">
        <ele>153.2</ele>
        <time>2021-06-23T07:45:51.000Z</time>
      </trkpt>
      <trkpt lat="43.4418" lon="6.41439">
        <ele>153.5</ele>
        <time>2021-06-23T07:46:00.000Z</time>
      </trkpt>
      <trkpt lat="43.44188" lon="6.41444">
        <ele>153.6</ele>
        <time>2021-06-23T07:46:09.000Z</time>
      </trkpt>
      <trkpt lat="43.44197" lon="6.4145">
        <ele>153.7</ele>
        <time>2021-06-23T07:46:20.000Z</time>
      </trkpt>
      <trkpt lat="43.44205" lon="6.41457">
        <ele>154.1</ele>
        <time>2021-06-23T07:46:28.000Z</time>
      </trkpt>
      <trkpt lat="43.44214" lon="6.41463">
        <ele>154.1</ele>
        <time>2021-06-23T07:46:37.000Z</time>
      </trkpt>
      <trkpt lat="43.44223" lon="6.41466">
        <ele>154.5</ele>
        <time>2021-06-23T07:46:47.000Z</time>
      </trkpt>
      <trkpt lat="43.44231" lon="6.4147">
        <ele>154.8</ele>
        <time>2021-06-23T07:46:57.000Z</time>
      </trkpt>
      <trkpt lat="43.44239" lon="6.41478">
        <ele>154.9</ele>
        <time>2021-06-23T07:47:08.000Z</time>
      </trkpt>
      <trkpt lat="43.44247" lon="6.41482">
        <ele>155</ele>
        <time>2021-06-23T07:47:19.000Z</time>
      </trkpt>
      <trkpt lat="43.44257" lon="6.41487">
        <ele>155.2</ele>
        <time>2021-06-23T07:47:29.000Z</time>
      </trkpt>
      <trkpt lat="43.44265" lon="6.41492">
        <ele>155.7</ele>
        <time>2021-06-23T07:47:40.000Z</time>
      </trkpt>
      <trkpt lat="43.44275" lon="6.41495">
        <ele>156.8</ele>
        <time>2021-06-23T07:47:52.000Z</time>
      </trkpt>
      <trkpt lat="43.44282" lon="6.41503">
        <ele>156.9</ele>
        <time>2021-06-23T07:48:02.000Z</time>
      </trkpt>
      <trkpt lat="43.44292" lon="6.41504">
        <ele>157.2</ele>
        <time>2021-06-23T07:48:11.000Z</time>
      </trkpt>
      <trkpt lat="43.44302" lon="6.41501">
        <ele>157.7</ele>
        <time>2021-06-23T07:48:23.000Z</time>
      </trkpt>
      <trkpt lat="43.44311" lon="6.41502">
        <ele>158.2</ele>
        <time>2021-06-23T07:48:32.000Z</time>
      </trkpt>
      <trkpt lat="43.4432" lon="6.41504">
        <ele>158.7</ele>
        <time>2021-06-23T07:48:43.000Z</time>
      </trkpt>
      <trkpt lat="43.4433" lon="6.41502">
        <ele>158.9</ele>
        <time>2021-06-23T07:48:52.000Z</time>
      </trkpt>
      <trkpt lat="43.44339" lon="6.41498">
        <ele>159.2</ele>
        <time>2021-06-23T07:49:02.000Z</time>
      </trkpt>
      <trkpt lat="43.44344" lon="6.41486">
        <ele>159.9</ele>
        <time>2021-06-23T07:49:13.000Z</time>
      </trkpt>
      <trkpt lat="43.44347" lon="6.41474">
        <ele>160</ele>
        <time>2021-06-23T07:49:22.000Z</time>
      </trkpt>
      <trkpt lat="43.4435" lon="6.4146">
        <ele>159.9</ele>
        <time>2021-06-23T07:49:31.000Z</time>
      </trkpt>
      <trkpt lat="43.44353" lon="6.41448">
        <ele>159.6</ele>
        <time>2021-06-23T07:49:40.000Z</time>
      </trkpt>
      <trkpt lat="43.44355" lon="6.41435">
        <ele>159.7</ele>
        <time>2021-06-23T07:49:50.000Z</time>
      </trkpt>
      <trkpt lat="43.44358" lon="6.41423">
        <ele>159.2</ele>
        <time>2021-06-23T07:50:00.000Z</time>
      </trkpt>
      <trkpt lat="43.44361" lon="6.4141">
        <ele>159.1</ele>
        <time>2021-06-23T07:50:12.000Z</time>
      </trkpt>
      <trkpt lat="43.44363" lon="6.41398">
        <ele>159.4</ele>
        <time>2021-06-23T07:50:24.000Z</time>
      </trkpt>
      <trkpt lat="43.44368" lon="6.41387">
        <ele>159.2</ele>
        <time>2021-06-23T07:50:34.000Z</time>
      </trkpt>
      <trkpt lat="43.44369" lon="6.41374">
        <ele>159.2</ele>
        <time>2021-06-23T07:50:44.000Z</time>
      </trkpt>
      <trkpt lat="43.4437" lon="6.41362">
        <ele>159</ele>
        <time>2021-06-23T07:50:54.000Z</time>
      </trkpt>
      <trkpt lat="43.44372" lon="6.41348">
        <ele>158.9</ele>
        <time>2021-06-23T07:51:05.000Z</time>
      </trkpt>
      <trkpt lat="43.44376" lon="6.41336">
        <ele>158.8</ele>
        <time>2021-06-23T07:51:15.000Z</time>
      </trkpt>
      <trkpt lat="43.4438" lon="6.41324">
        <ele>158.6</ele>
        <time>2021-06-23T07:51:25.000Z</time>
      </trkpt>
      <trkpt lat="43.44384" lon="6.41313">
        <ele>158.3</ele>
        <time>2021-06-23T07:51:35.000Z</time>
      </trkpt>
      <trkpt lat="43.44391" lon="6.41302">
        <ele>158.2</ele>
        <time>2021-06-23T07:51:44.000Z</time>
      </trkpt>
      <trkpt lat="43.44396" lon="6.41292">
        <ele>157.7</ele>
        <time>2021-06-23T07:51:55.000Z</time>
      </trkpt>
      <trkpt lat="43.44402" lon="6.41281">
        <ele>156.9</ele>
        <time>2021-06-23T07:52:05.000Z</time>
      </trkpt>
      <trkpt lat="43.4441" lon="6.41274">
        <ele>156.6</ele>
        <time>2021-06-23T07:52:14.000Z</time>
      </trkpt>
      <trkpt lat="43.44416" lon="6.41265">
        <ele>156.1</ele>
        <time>2021-06-23T07:52:24.000Z</time>
      </trkpt>
      <trkpt lat="43.44421" lon="6.41253">
        <ele>155.9</ele>
        <time>2021-06-23T07:52:33.000Z</time>
      </trkpt>
      <trkpt lat="43.44423" lon="6.41241">
        <ele>154.8</ele>
        <time>2021-06-23T07:52:44.000Z</time>
      </trkpt>
      <trkpt lat="43.44423" lon="6.41227">
        <ele>154.7</ele>
        <time>2021-06-23T07:52:54.000Z</time>
      </trkpt>
      <trkpt lat="43.44422" lon="6.41214">
        <ele>154.4</ele>
        <time>2021-06-23T07:53:06.000Z</time>
      </trkpt>
      <trkpt lat="43.44424" lon="6.41202">
        <ele>154.2</ele>
        <time>2021-06-23T07:53:15.000Z</time>
      </trkpt>
      <trkpt lat="43.44425" lon="6.41189">
        <ele>154</ele>
        <time>2021-06-23T07:53:24.000Z</time>
      </trkpt>
      <trkpt lat="43.44427" lon="6.41177">
        <ele>153.5</ele>
        <time>2021-06-23T07:53:33.000Z</time>
      </trkpt>
      <trkpt lat="43.44428" lon="6.41164">
        <ele>153.6</ele>
        <time>2021-06-23T07:53:43.000Z</time>
      </trkpt>
      <trkpt lat="43.44431" lon="6.41152">
        <ele>153.5</ele>
        <time>2021-06-23T07:53:51.000Z</time>
      </trkpt>
      <trkpt lat="43.44434" lon="6.41139">
        <ele>153.3</ele>
        <time>2021-06-23T07:54:01.000Z</time>
      </trkpt>
      <trkpt lat="43.44436" lon="6.41126">
        <ele>153.3</ele>
        <time>2021-06-23T07:54:11.000Z</time>
      </trkpt>
      <trkpt lat="43.44437" lon="6.41113">
        <ele>153.3</ele>
        <time>2021-06-23T07:54:22.000Z</time>
      </trkpt>
      <trkpt lat="43.44441" lon="6.41101">
        <ele>152.6</ele>
        <time>2021-06-23T07:54:32.000Z</time>
      </trkpt>
      <trkpt lat="43.44446" lon="6.41091">
        <ele>151.9</ele>
        <time>2021-06-23T07:54:43.000Z</time>
      </trkpt>
      <trkpt lat="43.44448" lon="6.41078">
        <ele>151.5</ele>
        <time>2021-06-23T07:54:53.000Z</time>
      </trkpt>
      <trkpt lat="43.44452" lon="6.41066">
        <ele>151.3</ele>
        <time>2021-06-23T07:55:04.000Z</time>
      </trkpt>
      <trkpt lat="43.44453" lon="6.41053">
        <ele>150.6</ele>
        <time>2021-06-23T07:55:15.000Z</time>
      </trkpt>
      <trkpt lat="43.44455" lon="6.41041">
        <ele>149.9</ele>
        <time>2021-06-23T08:03:34.000Z</time>
      </trkpt>
      <trkpt lat="43.44464" lon="6.41034">
        <ele>149.4</ele>
        <time>2021-06-23T08:03:44.000Z</time>
      </trkpt>
      <trkpt lat="43.4447" lon="6.41024">
        <ele>148.7</ele>
        <time>2021-06-23T08:03:55.000Z</time>
      </trkpt>
      <trkpt lat="43.44476" lon="6.41014">
        <ele>148.3</ele>
        <time>2021-06-23T08:04:06.000Z</time>
      </trkpt>
      <trkpt lat="43.44483" lon="6.41006">
        <ele>147.3</ele>
        <time>2021-06-23T08:04:20.000Z</time>
      </trkpt>
      <trkpt lat="43.44491" lon="6.40999">
        <ele>146.5</ele>
        <time>2021-06-23T08:04:32.000Z</time>
      </trkpt>
      <trkpt lat="43.44497" lon="6.40988">
        <ele>145.9</ele>
        <time>2021-06-23T08:04:40.000Z</time>
      </trkpt>
      <trkpt lat="43.445" lon="6.40976">
        <ele>145.3</ele>
        <time>2021-06-23T08:04:51.000Z</time>
      </trkpt>
      <trkpt lat="43.44509" lon="6.4097">
        <ele>145</ele>
        <time>2021-06-23T08:04:58.000Z</time>
      </trkpt>
      <trkpt lat="43.44516" lon="6.40961">
        <ele>144.2</ele>
        <time>2021-06-23T08:05:06.000Z</time>
      </trkpt>
      <trkpt lat="43.44521" lon="6.40951">
        <ele>143.3</ele>
        <time>2021-06-23T08:05:16.000Z</time>
      </trkpt>
      <trkpt lat="43.44526" lon="6.4094">
        <ele>142.6</ele>
        <time>2021-06-23T08:05:26.000Z</time>
      </trkpt>
      <trkpt lat="43.44533" lon="6.40933">
        <ele>141.7</ele>
        <time>2021-06-23T08:05:35.000Z</time>
      </trkpt>
      <trkpt lat="43.44541" lon="6.40923">
        <ele>141.1</ele>
        <time>2021-06-23T08:05:47.000Z</time>
      </trkpt>
      <trkpt lat="43.44548" lon="6.40914">
        <ele>140.1</ele>
        <time>2021-06-23T08:06:00.000Z</time>
      </trkpt>
      <trkpt lat="43.44554" lon="6.40905">
        <ele>139.1</ele>
        <time>2021-06-23T08:06:11.000Z</time>
      </trkpt>
      <trkpt lat="43.44562" lon="6.40898">
        <ele>138.4</ele>
        <time>2021-06-23T08:06:20.000Z</time>
      </trkpt>
      <trkpt lat="43.44571" lon="6.40893">
        <ele>137.3</ele>
        <time>2021-06-23T08:06:31.000Z</time>
      </trkpt>
      <trkpt lat="43.4458" lon="6.40887">
        <ele>136.7</ele>
        <time>2021-06-23T08:06:40.000Z</time>
      </trkpt>
      <trkpt lat="43.44588" lon="6.40879">
        <ele>136.1</ele>
        <time>2021-06-23T08:06:51.000Z</time>
      </trkpt>
      <trkpt lat="43.44596" lon="6.40871">
        <ele>135.3</ele>
        <time>2021-06-23T08:07:00.000Z</time>
      </trkpt>
      <trkpt lat="43.44605" lon="6.40867">
        <ele>134.4</ele>
        <time>2021-06-23T08:07:10.000Z</time>
      </trkpt>
      <trkpt lat="43.44612" lon="6.40859">
        <ele>133.6</ele>
        <time>2021-06-23T08:07:19.000Z</time>
      </trkpt>
      <trkpt lat="43.44619" lon="6.40851">
        <ele>132.9</ele>
        <time>2021-06-23T08:07:29.000Z</time>
      </trkpt>
      <trkpt lat="43.44627" lon="6.40843">
        <ele>132.6</ele>
        <time>2021-06-23T08:07:38.000Z</time>
      </trkpt>
      <trkpt lat="43.44634" lon="6.40835">
        <ele>131.6</ele>
        <time>2021-06-23T08:07:48.000Z</time>
      </trkpt>
      <trkpt lat="43.44641" lon="6.40827">
        <ele>130.7</ele>
        <time>2021-06-23T08:07:58.000Z</time>
      </trkpt>
      <trkpt lat="43.44651" lon="6.40824">
        <ele>130.2</ele>
        <time>2021-06-23T08:08:06.000Z</time>
      </trkpt>
      <trkpt lat="43.44658" lon="6.40815">
        <ele>129.6</ele>
        <time>2021-06-23T08:08:17.000Z</time>
      </trkpt>
      <trkpt lat="43.44666" lon="6.4081">
        <ele>128.5</ele>
        <time>2021-06-23T08:08:26.000Z</time>
      </trkpt>
      <trkpt lat="43.44675" lon="6.40807">
        <ele>127.3</ele>
        <time>2021-06-23T08:08:40.000Z</time>
      </trkpt>
      <trkpt lat="43.44685" lon="6.40807">
        <ele>126.9</ele>
        <time>2021-06-23T08:08:50.000Z</time>
      </trkpt>
      <trkpt lat="43.44695" lon="6.40806">
        <ele>126.4</ele>
        <time>2021-06-23T08:09:01.000Z</time>
      </trkpt>
      <trkpt lat="43.44704" lon="6.40802">
        <ele>125.5</ele>
        <time>2021-06-23T08:09:13.000Z</time>
      </trkpt>
      <trkpt lat="43.44713" lon="6.40797">
        <ele>125.2</ele>
        <time>2021-06-23T08:09:25.000Z</time>
      </trkpt>
      <trkpt lat="43.44723" lon="6.40794">
        <ele>125</ele>
        <time>2021-06-23T08:09:34.000Z</time>
      </trkpt>
      <trkpt lat="43.44732" lon="6.40789">
        <ele>124.7</ele>
        <time>2021-06-23T08:09:40.000Z</time>
      </trkpt>
      <trkpt lat="43.4474" lon="6.40785">
        <ele>124.3</ele>
        <time>2021-06-23T08:09:51.000Z</time>
      </trkpt>
      <trkpt lat="43.4475" lon="6.40782">
        <ele>124.1</ele>
        <time>2021-06-23T08:09:59.000Z</time>
      </trkpt>
      <trkpt lat="43.44757" lon="6.40774">
        <ele>124</ele>
        <time>2021-06-23T08:10:07.000Z</time>
      </trkpt>
      <trkpt lat="43.44765" lon="6.40766">
        <ele>123.7</ele>
        <time>2021-06-23T08:10:18.000Z</time>
      </trkpt>
      <trkpt lat="43.44773" lon="6.40757">
        <ele>123.5</ele>
        <time>2021-06-23T08:10:28.000Z</time>
      </trkpt>
      <trkpt lat="43.44779" lon="6.40747">
        <ele>123.3</ele>
        <time>2021-06-23T08:10:39.000Z</time>
      </trkpt>
      <trkpt lat="43.44784" lon="6.40737">
        <ele>123.3</ele>
        <time>2021-06-23T08:10:48.000Z</time>
      </trkpt>
      <trkpt lat="43.4479" lon="6.40727">
        <ele>122.9</ele>
        <time>2021-06-23T08:10:57.000Z</time>
      </trkpt>
      <trkpt lat="43.44796" lon="6.40717">
        <ele>122.8</ele>
        <time>2021-06-23T08:11:07.000Z</time>
      </trkpt>
      <trkpt lat="43.44802" lon="6.40707">
        <ele>122.7</ele>
        <time>2021-06-23T08:11:15.000Z</time>
      </trkpt>
      <trkpt lat="43.44808" lon="6.40696">
        <ele>122.6</ele>
        <time>2021-06-23T08:11:24.000Z</time>
      </trkpt>
      <trkpt lat="43.44812" lon="6.40684">
        <ele>122.4</ele>
        <time>2021-06-23T08:11:34.000Z</time>
      </trkpt>
      <trkpt lat="43.44813" lon="6.40671">
        <ele>122.5</ele>
        <time>2021-06-23T08:11:43.000Z</time>
      </trkpt>
      <trkpt lat="43.44818" lon="6.4066">
        <ele>122.6</ele>
        <time>2021-06-23T08:11:52.000Z</time>
      </trkpt>
      <trkpt lat="43.44823" lon="6.4065">
        <ele>123.1</ele>
        <time>2021-06-23T08:12:18.000Z</time>
      </trkpt>
      <trkpt lat="43.44833" lon="6.40648">
        <ele>123.9</ele>
        <time>2021-06-23T08:12:31.000Z</time>
      </trkpt>
      <trkpt lat="43.44842" lon="6.40646">
        <ele>124.8</ele>
        <time>2021-06-23T08:12:43.000Z</time>
      </trkpt>
      <trkpt lat="43.44851" lon="6.40646">
        <ele>125.8</ele>
        <time>2021-06-23T08:12:55.000Z</time>
      </trkpt>
      <trkpt lat="43.44861" lon="6.40643">
        <ele>126.9</ele>
        <time>2021-06-23T08:13:06.000Z</time>
      </trkpt>
      <trkpt lat="43.4487" lon="6.40641">
        <ele>127.8</ele>
        <time>2021-06-23T08:13:18.000Z</time>
      </trkpt>
      <trkpt lat="43.44879" lon="6.40637">
        <ele>128.8</ele>
        <time>2021-06-23T08:13:30.000Z</time>
      </trkpt>
      <trkpt lat="43.44886" lon="6.40628">
        <ele>129.6</ele>
        <time>2021-06-23T08:13:42.000Z</time>
      </trkpt>
      <trkpt lat="43.44893" lon="6.40619">
        <ele>130.8</ele>
        <time>2021-06-23T08:13:57.000Z</time>
      </trkpt>
      <trkpt lat="43.44896" lon="6.40606">
        <ele>131.4</ele>
        <time>2021-06-23T08:14:18.000Z</time>
      </trkpt>
      <trkpt lat="43.44902" lon="6.40596">
        <ele>131.5</ele>
        <time>2021-06-23T08:14:27.000Z</time>
      </trkpt>
      <trkpt lat="43.44908" lon="6.40587">
        <ele>131.7</ele>
        <time>2021-06-23T08:14:35.000Z</time>
      </trkpt>
      <trkpt lat="43.44915" lon="6.40577">
        <ele>131.3</ele>
        <time>2021-06-23T08:14:45.000Z</time>
      </trkpt>
      <trkpt lat="43.44922" lon="6.40568">
        <ele>130.9</ele>
        <time>2021-06-23T08:14:55.000Z</time>
      </trkpt>
      <trkpt lat="43.44931" lon="6.40567">
        <ele>130.7</ele>
        <time>2021-06-23T08:15:04.000Z</time>
      </trkpt>
      <trkpt lat="43.4494" lon="6.40566">
        <ele>130.4</ele>
        <time>2021-06-23T08:15:14.000Z</time>
      </trkpt>
      <trkpt lat="43.4495" lon="6.40565">
        <ele>129.9</ele>
        <time>2021-06-23T08:15:29.000Z</time>
      </trkpt>
      <trkpt lat="43.44959" lon="6.40565">
        <ele>129.5</ele>
        <time>2021-06-23T08:15:44.000Z</time>
      </trkpt>
      <trkpt lat="43.44969" lon="6.40566">
        <ele>129.5</ele>
        <time>2021-06-23T08:15:56.000Z</time>
      </trkpt>
      <trkpt lat="43.44978" lon="6.40564">
        <ele>129.2</ele>
        <time>2021-06-23T08:16:05.000Z</time>
      </trkpt>
      <trkpt lat="43.44987" lon="6.40565">
        <ele>129.1</ele>
        <time>2021-06-23T08:16:16.000Z</time>
      </trkpt>
      <trkpt lat="43.44999" lon="6.40564">
        <ele>129.3</ele>
        <time>2021-06-23T08:16:27.000Z</time>
      </trkpt>
      <trkpt lat="43.45009" lon="6.40558">
        <ele>129.4</ele>
        <time>2021-06-23T08:16:33.000Z</time>
      </trkpt>
      <trkpt lat="43.45018" lon="6.40559">
        <ele>129.2</ele>
        <time>2021-06-23T08:16:44.000Z</time>
      </trkpt>
      <trkpt lat="43.45027" lon="6.40559">
        <ele>129</ele>
        <time>2021-06-23T08:16:56.000Z</time>
      </trkpt>
      <trkpt lat="43.45037" lon="6.40557">
        <ele>128.9</ele>
        <time>2021-06-23T08:17:08.000Z</time>
      </trkpt>
      <trkpt lat="43.45047" lon="6.40557">
        <ele>128.6</ele>
        <time>2021-06-23T08:17:18.000Z</time>
      </trkpt>
      <trkpt lat="43.45056" lon="6.40556">
        <ele>128.3</ele>
        <time>2021-06-23T08:17:28.000Z</time>
      </trkpt>
      <trkpt lat="43.45066" lon="6.40559">
        <ele>127.3</ele>
        <time>2021-06-23T08:17:42.000Z</time>
      </trkpt>
      <trkpt lat="43.45075" lon="6.40559">
        <ele>126.7</ele>
        <time>2021-06-23T08:17:52.000Z</time>
      </trkpt>
      <trkpt lat="43.45084" lon="6.40558">
        <ele>126.4</ele>
        <time>2021-06-23T08:17:59.000Z</time>
      </trkpt>
      <trkpt lat="43.45094" lon="6.4056">
        <ele>126.4</ele>
        <time>2021-06-23T08:18:09.000Z</time>
      </trkpt>
      <trkpt lat="43.45103" lon="6.40558">
        <ele>126</ele>
        <time>2021-06-23T08:18:19.000Z</time>
      </trkpt>
      <trkpt lat="43.45113" lon="6.40556">
        <ele>125.6</ele>
        <time>2021-06-23T08:18:28.000Z</time>
      </trkpt>
      <trkpt lat="43.45123" lon="6.40556">
        <ele>125.4</ele>
        <time>2021-06-23T08:18:39.000Z</time>
      </trkpt>
      <trkpt lat="43.45132" lon="6.40556">
        <ele>124.7</ele>
        <time>2021-06-23T08:18:50.000Z</time>
      </trkpt>
      <trkpt lat="43.45142" lon="6.40557">
        <ele>123.8</ele>
        <time>2021-06-23T08:19:01.000Z</time>
      </trkpt>
      <trkpt lat="43.45151" lon="6.40558">
        <ele>123.7</ele>
        <time>2021-06-23T08:19:14.000Z</time>
      </trkpt>
      <trkpt lat="43.45162" lon="6.40564">
        <ele>124.1</ele>
        <time>2021-06-23T08:19:26.000Z</time>
      </trkpt>
      <trkpt lat="43.45173" lon="6.40565">
        <ele>124.6</ele>
        <time>2021-06-23T08:19:41.000Z</time>
      </trkpt>
      <trkpt lat="43.45183" lon="6.40567">
        <ele>124.9</ele>
        <time>2021-06-23T08:19:49.000Z</time>
      </trkpt>
      <trkpt lat="43.45193" lon="6.40565">
        <ele>125.4</ele>
        <time>2021-06-23T08:19:59.000Z</time>
      </trkpt>
      <trkpt lat="43.45202" lon="6.40561">
        <ele>126.5</ele>
        <time>2021-06-23T08:20:12.000Z</time>
      </trkpt>
      <trkpt lat="43.45211" lon="6.4056">
        <ele>127.4</ele>
        <time>2021-06-23T08:20:26.000Z</time>
      </trkpt>
      <trkpt lat="43.4522" lon="6.4056">
        <ele>128.5</ele>
        <time>2021-06-23T08:20:37.000Z</time>
      </trkpt>
      <trkpt lat="43.45229" lon="6.40555">
        <ele>128.4</ele>
        <time>2021-06-23T08:20:50.000Z</time>
      </trkpt>
      <trkpt lat="43.45239" lon="6.40555">
        <ele>128.1</ele>
        <time>2021-06-23T08:20:59.000Z</time>
      </trkpt>
      <trkpt lat="43.45248" lon="6.40557">
        <ele>128.1</ele>
        <time>2021-06-23T08:21:12.000Z</time>
      </trkpt>
      <trkpt lat="43.45257" lon="6.4056">
        <ele>128.6</ele>
        <time>2021-06-23T08:21:24.000Z</time>
      </trkpt>
      <trkpt lat="43.45266" lon="6.40563">
        <ele>128.9</ele>
        <time>2021-06-23T08:21:34.000Z</time>
      </trkpt>
      <trkpt lat="43.45275" lon="6.40566">
        <ele>128.9</ele>
        <time>2021-06-23T08:21:44.000Z</time>
      </trkpt>
      <trkpt lat="43.45283" lon="6.40575">
        <ele>129.1</ele>
        <time>2021-06-23T08:21:55.000Z</time>
      </trkpt>
      <trkpt lat="43.45292" lon="6.40576">
        <ele>130</ele>
        <time>2021-06-23T08:22:05.000Z</time>
      </trkpt>
      <trkpt lat="43.453" lon="6.40583">
        <ele>130.1</ele>
        <time>2021-06-23T08:22:16.000Z</time>
      </trkpt>
      <trkpt lat="43.45308" lon="6.4059">
        <ele>130.6</ele>
        <time>2021-06-23T08:22:28.000Z</time>
      </trkpt>
      <trkpt lat="43.45317" lon="6.40595">
        <ele>130.9</ele>
        <time>2021-06-23T08:22:38.000Z</time>
      </trkpt>
      <trkpt lat="43.45322" lon="6.40606">
        <ele>131.2</ele>
        <time>2021-06-23T08:22:57.000Z</time>
      </trkpt>
      <trkpt lat="43.45329" lon="6.40614">
        <ele>131.7</ele>
        <time>2021-06-23T08:23:05.000Z</time>
      </trkpt>
      <trkpt lat="43.45334" lon="6.40624">
        <ele>131.9</ele>
        <time>2021-06-23T08:23:16.000Z</time>
      </trkpt>
      <trkpt lat="43.45337" lon="6.40637">
        <ele>132.6</ele>
        <time>2021-06-23T08:23:29.000Z</time>
      </trkpt>
      <trkpt lat="43.45341" lon="6.40649">
        <ele>133.2</ele>
        <time>2021-06-23T08:23:40.000Z</time>
      </trkpt>
      <trkpt lat="43.45347" lon="6.40659">
        <ele>133.6</ele>
        <time>2021-06-23T08:23:52.000Z</time>
      </trkpt>
      <trkpt lat="43.45352" lon="6.4067">
        <ele>134.4</ele>
        <time>2021-06-23T08:24:17.000Z</time>
      </trkpt>
      <trkpt lat="43.45357" lon="6.40681">
        <ele>134.4</ele>
        <time>2021-06-23T08:24:32.000Z</time>
      </trkpt>
      <trkpt lat="43.45364" lon="6.40689">
        <ele>135</ele>
        <time>2021-06-23T08:24:44.000Z</time>
      </trkpt>
      <trkpt lat="43.45372" lon="6.40697">
        <ele>135.6</ele>
        <time>2021-06-23T08:24:59.000Z</time>
      </trkpt>
      <trkpt lat="43.45379" lon="6.40707">
        <ele>135.8</ele>
        <time>2021-06-23T08:25:10.000Z</time>
      </trkpt>
      <trkpt lat="43.45386" lon="6.40717">
        <ele>136.1</ele>
        <time>2021-06-23T08:25:20.000Z</time>
      </trkpt>
      <trkpt lat="43.45394" lon="6.40725">
        <ele>136.5</ele>
        <time>2021-06-23T08:25:34.000Z</time>
      </trkpt>
      <trkpt lat="43.45402" lon="6.40733">
        <ele>137.1</ele>
        <time>2021-06-23T08:25:43.000Z</time>
      </trkpt>
      <trkpt lat="43.45405" lon="6.40744">
        <ele>137.1</ele>
        <time>2021-06-23T08:25:51.000Z</time>
      </trkpt>
      <trkpt lat="43.45412" lon="6.40753">
        <ele>137.2</ele>
        <time>2021-06-23T08:25:59.000Z</time>
      </trkpt>
      <trkpt lat="43.45419" lon="6.4076">
        <ele>137.3</ele>
        <time>2021-06-23T08:26:11.000Z</time>
      </trkpt>
      <trkpt lat="43.45428" lon="6.40766">
        <ele>138.1</ele>
        <time>2021-06-23T08:26:24.000Z</time>
      </trkpt>
      <trkpt lat="43.45434" lon="6.40775">
        <ele>138.8</ele>
        <time>2021-06-23T08:26:35.000Z</time>
      </trkpt>
      <trkpt lat="43.45442" lon="6.40783">
        <ele>139.8</ele>
        <time>2021-06-23T08:26:47.000Z</time>
      </trkpt>
      <trkpt lat="43.45448" lon="6.40793">
        <ele>141</ele>
        <time>2021-06-23T08:27:01.000Z</time>
      </trkpt>
      <trkpt lat="43.45446" lon="6.40805">
        <ele>142.4</ele>
        <time>2021-06-23T08:27:13.000Z</time>
      </trkpt>
      <trkpt lat="43.45448" lon="6.40818">
        <ele>143.3</ele>
        <time>2021-06-23T08:27:25.000Z</time>
      </trkpt>
      <trkpt lat="43.45446" lon="6.40833">
        <ele>144.2</ele>
        <time>2021-06-23T08:27:37.000Z</time>
      </trkpt>
      <trkpt lat="43.45445" lon="6.40845">
        <ele>144.8</ele>
        <time>2021-06-23T08:27:46.000Z</time>
      </trkpt>
      <trkpt lat="43.45444" lon="6.40859">
        <ele>145.7</ele>
        <time>2021-06-23T08:28:00.000Z</time>
      </trkpt>
      <trkpt lat="43.45447" lon="6.40872">
        <ele>146.3</ele>
        <time>2021-06-23T08:28:06.000Z</time>
      </trkpt>
      <trkpt lat="43.45447" lon="6.40885">
        <ele>147.3</ele>
        <time>2021-06-23T08:28:18.000Z</time>
      </trkpt>
      <trkpt lat="43.45447" lon="6.40898">
        <ele>147.9</ele>
        <time>2021-06-23T08:28:28.000Z</time>
      </trkpt>
      <trkpt lat="43.45447" lon="6.40912">
        <ele>148.2</ele>
        <time>2021-06-23T08:28:42.000Z</time>
      </trkpt>
      <trkpt lat="43.45444" lon="6.40924">
        <ele>149.3</ele>
        <time>2021-06-23T08:28:57.000Z</time>
      </trkpt>
      <trkpt lat="43.45453" lon="6.40928">
        <ele>150.5</ele>
        <time>2021-06-23T08:30:23.000Z</time>
      </trkpt>
      <trkpt lat="43.45444" lon="6.40931">
        <ele>149.8</ele>
        <time>2021-06-23T08:33:30.000Z</time>
      </trkpt>
      <trkpt lat="43.45442" lon="6.40943">
        <ele>150.8</ele>
        <time>2021-06-23T08:33:56.000Z</time>
      </trkpt>
      <trkpt lat="43.45438" lon="6.40956">
        <ele>151.5</ele>
        <time>2021-06-23T08:34:05.000Z</time>
      </trkpt>
      <trkpt lat="43.45433" lon="6.40967">
        <ele>152.3</ele>
        <time>2021-06-23T08:34:14.000Z</time>
      </trkpt>
      <trkpt lat="43.45427" lon="6.40977">
        <ele>153.7</ele>
        <time>2021-06-23T08:34:27.000Z</time>
      </trkpt>
      <trkpt lat="43.45422" lon="6.40989">
        <ele>154.9</ele>
        <time>2021-06-23T08:34:39.000Z</time>
      </trkpt>
      <trkpt lat="43.45416" lon="6.41">
        <ele>155.7</ele>
        <time>2021-06-23T08:34:49.000Z</time>
      </trkpt>
      <trkpt lat="43.45411" lon="6.4101">
        <ele>156.2</ele>
        <time>2021-06-23T08:34:58.000Z</time>
      </trkpt>
      <trkpt lat="43.45403" lon="6.41017">
        <ele>157.1</ele>
        <time>2021-06-23T08:35:08.000Z</time>
      </trkpt>
      <trkpt lat="43.45396" lon="6.41026">
        <ele>158.4</ele>
        <time>2021-06-23T08:35:21.000Z</time>
      </trkpt>
      <trkpt lat="43.45391" lon="6.41037">
        <ele>159.3</ele>
        <time>2021-06-23T08:35:30.000Z</time>
      </trkpt>
      <trkpt lat="43.45385" lon="6.41047">
        <ele>159.9</ele>
        <time>2021-06-23T08:35:39.000Z</time>
      </trkpt>
      <trkpt lat="43.45381" lon="6.41058">
        <ele>161.6</ele>
        <time>2021-06-23T08:35:52.000Z</time>
      </trkpt>
      <trkpt lat="43.45373" lon="6.41066">
        <ele>162.6</ele>
        <time>2021-06-23T08:36:02.000Z</time>
      </trkpt>
      <trkpt lat="43.45364" lon="6.41071">
        <ele>163.6</ele>
        <time>2021-06-23T08:36:13.000Z</time>
      </trkpt>
      <trkpt lat="43.45358" lon="6.4108">
        <ele>164.9</ele>
        <time>2021-06-23T08:36:25.000Z</time>
      </trkpt>
      <trkpt lat="43.45353" lon="6.41091">
        <ele>165.9</ele>
        <time>2021-06-23T08:36:36.000Z</time>
      </trkpt>
      <trkpt lat="43.45346" lon="6.411">
        <ele>167.3</ele>
        <time>2021-06-23T08:36:48.000Z</time>
      </trkpt>
      <trkpt lat="43.45342" lon="6.41112">
        <ele>168.5</ele>
        <time>2021-06-23T08:36:59.000Z</time>
      </trkpt>
      <trkpt lat="43.45336" lon="6.41121">
        <ele>169.9</ele>
        <time>2021-06-23T08:37:11.000Z</time>
      </trkpt>
      <trkpt lat="43.45332" lon="6.41132">
        <ele>172</ele>
        <time>2021-06-23T08:37:26.000Z</time>
      </trkpt>
      <trkpt lat="43.45325" lon="6.41142">
        <ele>173.9</ele>
        <time>2021-06-23T08:37:38.000Z</time>
      </trkpt>
      <trkpt lat="43.45319" lon="6.41152">
        <ele>175</ele>
        <time>2021-06-23T08:37:45.000Z</time>
      </trkpt>
      <trkpt lat="43.45315" lon="6.41163">
        <ele>176.2</ele>
        <time>2021-06-23T08:37:53.000Z</time>
      </trkpt>
      <trkpt lat="43.45311" lon="6.41175">
        <ele>177.5</ele>
        <time>2021-06-23T08:38:05.000Z</time>
      </trkpt>
      <trkpt lat="43.45316" lon="6.41186">
        <ele>178.3</ele>
        <time>2021-06-23T08:38:14.000Z</time>
      </trkpt>
      <trkpt lat="43.45321" lon="6.41198">
        <ele>178.7</ele>
        <time>2021-06-23T08:38:23.000Z</time>
      </trkpt>
      <trkpt lat="43.45326" lon="6.41209">
        <ele>179.6</ele>
        <time>2021-06-23T08:38:31.000Z</time>
      </trkpt>
      <trkpt lat="43.4533" lon="6.4122">
        <ele>180.8</ele>
        <time>2021-06-23T08:38:41.000Z</time>
      </trkpt>
      <trkpt lat="43.45334" lon="6.41231">
        <ele>182.3</ele>
        <time>2021-06-23T08:38:52.000Z</time>
      </trkpt>
      <trkpt lat="43.45339" lon="6.41242">
        <ele>184.2</ele>
        <time>2021-06-23T08:39:02.000Z</time>
      </trkpt>
      <trkpt lat="43.45343" lon="6.41254">
        <ele>186.1</ele>
        <time>2021-06-23T08:39:12.000Z</time>
      </trkpt>
      <trkpt lat="43.45348" lon="6.41265">
        <ele>188.4</ele>
        <time>2021-06-23T08:39:23.000Z</time>
      </trkpt>
      <trkpt lat="43.45352" lon="6.41276">
        <ele>190</ele>
        <time>2021-06-23T08:39:33.000Z</time>
      </trkpt>
      <trkpt lat="43.45359" lon="6.41284">
        <ele>191.5</ele>
        <time>2021-06-23T08:39:43.000Z</time>
      </trkpt>
      <trkpt lat="43.45362" lon="6.41296">
        <ele>193.1</ele>
        <time>2021-06-23T08:40:04.000Z</time>
      </trkpt>
      <trkpt lat="43.45367" lon="6.41309">
        <ele>193.4</ele>
        <time>2021-06-23T08:40:15.000Z</time>
      </trkpt>
      <trkpt lat="43.45371" lon="6.4132">
        <ele>193.5</ele>
        <time>2021-06-23T08:40:24.000Z</time>
      </trkpt>
      <trkpt lat="43.45378" lon="6.41328">
        <ele>194</ele>
        <time>2021-06-23T08:40:48.000Z</time>
      </trkpt>
      <trkpt lat="43.45381" lon="6.41341">
        <ele>193.7</ele>
        <time>2021-06-23T08:41:20.000Z</time>
      </trkpt>
      <trkpt lat="43.45388" lon="6.41333">
        <ele>193.3</ele>
        <time>2021-06-23T08:42:23.000Z</time>
      </trkpt>
      <trkpt lat="43.45378" lon="6.41335">
        <ele>193.1</ele>
        <time>2021-06-23T08:44:22.000Z</time>
      </trkpt>
      <trkpt lat="43.45369" lon="6.41334">
        <ele>193.5</ele>
        <time>2021-06-23T08:44:38.000Z</time>
      </trkpt>
      <trkpt lat="43.4536" lon="6.41333">
        <ele>193.4</ele>
        <time>2021-06-23T08:44:52.000Z</time>
      </trkpt>
      <trkpt lat="43.4535" lon="6.41332">
        <ele>193.4</ele>
        <time>2021-06-23T08:45:06.000Z</time>
      </trkpt>
      <trkpt lat="43.45341" lon="6.4133">
        <ele>193.4</ele>
        <time>2021-06-23T08:45:16.000Z</time>
      </trkpt>
      <trkpt lat="43.45332" lon="6.41327">
        <ele>193.5</ele>
        <time>2021-06-23T08:45:25.000Z</time>
      </trkpt>
      <trkpt lat="43.45323" lon="6.41326">
        <ele>193.4</ele>
        <time>2021-06-23T08:45:34.000Z</time>
      </trkpt>
      <trkpt lat="43.45313" lon="6.41327">
        <ele>193.3</ele>
        <time>2021-06-23T08:45:44.000Z</time>
      </trkpt>
      <trkpt lat="43.45303" lon="6.41328">
        <ele>193.4</ele>
        <time>2021-06-23T08:45:53.000Z</time>
      </trkpt>
      <trkpt lat="43.45293" lon="6.41329">
        <ele>194</ele>
        <time>2021-06-23T08:46:05.000Z</time>
      </trkpt>
      <trkpt lat="43.45283" lon="6.41331">
        <ele>194</ele>
        <time>2021-06-23T08:46:18.000Z</time>
      </trkpt>
      <trkpt lat="43.45274" lon="6.41332">
        <ele>194.5</ele>
        <time>2021-06-23T08:46:29.000Z</time>
      </trkpt>
      <trkpt lat="43.45265" lon="6.41334">
        <ele>194.8</ele>
        <time>2021-06-23T08:46:39.000Z</time>
      </trkpt>
      <trkpt lat="43.45255" lon="6.41333">
        <ele>194.8</ele>
        <time>2021-06-23T08:46:49.000Z</time>
      </trkpt>
      <trkpt lat="43.45246" lon="6.41336">
        <ele>194.8</ele>
        <time>2021-06-23T08:46:58.000Z</time>
      </trkpt>
      <trkpt lat="43.45239" lon="6.41344">
        <ele>194.8</ele>
        <time>2021-06-23T08:47:15.000Z</time>
      </trkpt>
      <trkpt lat="43.45235" lon="6.41356">
        <ele>194.1</ele>
        <time>2021-06-23T08:47:27.000Z</time>
      </trkpt>
      <trkpt lat="43.45231" lon="6.41368">
        <ele>194.1</ele>
        <time>2021-06-23T08:47:35.000Z</time>
      </trkpt>
      <trkpt lat="43.45224" lon="6.41375">
        <ele>193.6</ele>
        <time>2021-06-23T08:47:45.000Z</time>
      </trkpt>
      <trkpt lat="43.45215" lon="6.41381">
        <ele>192.6</ele>
        <time>2021-06-23T08:47:53.000Z</time>
      </trkpt>
      <trkpt lat="43.45208" lon="6.4139">
        <ele>191.8</ele>
        <time>2021-06-23T08:48:05.000Z</time>
      </trkpt>
      <trkpt lat="43.45202" lon="6.41398">
        <ele>191.3</ele>
        <time>2021-06-23T08:48:18.000Z</time>
      </trkpt>
      <trkpt lat="43.45194" lon="6.41407">
        <ele>191.1</ele>
        <time>2021-06-23T08:48:31.000Z</time>
      </trkpt>
      <trkpt lat="43.45186" lon="6.41416">
        <ele>191.2</ele>
        <time>2021-06-23T08:48:42.000Z</time>
      </trkpt>
      <trkpt lat="43.4518" lon="6.41426">
        <ele>191.2</ele>
        <time>2021-06-23T08:48:52.000Z</time>
      </trkpt>
      <trkpt lat="43.45172" lon="6.41433">
        <ele>191.1</ele>
        <time>2021-06-23T08:49:01.000Z</time>
      </trkpt>
      <trkpt lat="43.45165" lon="6.41441">
        <ele>190.8</ele>
        <time>2021-06-23T08:49:14.000Z</time>
      </trkpt>
      <trkpt lat="43.45157" lon="6.41447">
        <ele>190.6</ele>
        <time>2021-06-23T08:49:23.000Z</time>
      </trkpt>
      <trkpt lat="43.45148" lon="6.41452">
        <ele>191</ele>
        <time>2021-06-23T08:49:33.000Z</time>
      </trkpt>
      <trkpt lat="43.45141" lon="6.4146">
        <ele>191.6</ele>
        <time>2021-06-23T08:49:44.000Z</time>
      </trkpt>
      <trkpt lat="43.45132" lon="6.41465">
        <ele>191.8</ele>
        <time>2021-06-23T08:49:52.000Z</time>
      </trkpt>
      <trkpt lat="43.45125" lon="6.41471">
        <ele>192.1</ele>
        <time>2021-06-23T08:50:02.000Z</time>
      </trkpt>
      <trkpt lat="43.45116" lon="6.41477">
        <ele>191.8</ele>
        <time>2021-06-23T08:50:12.000Z</time>
      </trkpt>
      <trkpt lat="43.45108" lon="6.41483">
        <ele>191.8</ele>
        <time>2021-06-23T08:50:22.000Z</time>
      </trkpt>
      <trkpt lat="43.45099" lon="6.41488">
        <ele>191.5</ele>
        <time>2021-06-23T08:50:31.000Z</time>
      </trkpt>
      <trkpt lat="43.45093" lon="6.41497">
        <ele>190.9</ele>
        <time>2021-06-23T08:51:18.000Z</time>
      </trkpt>
      <trkpt lat="43.45083" lon="6.41501">
        <ele>190.5</ele>
        <time>2021-06-23T08:51:29.000Z</time>
      </trkpt>
      <trkpt lat="43.45074" lon="6.415">
        <ele>189.3</ele>
        <time>2021-06-23T08:51:52.000Z</time>
      </trkpt>
      <trkpt lat="43.45066" lon="6.41494">
        <ele>188.7</ele>
        <time>2021-06-23T08:51:59.000Z</time>
      </trkpt>
      <trkpt lat="43.4506" lon="6.41484">
        <ele>187.7</ele>
        <time>2021-06-23T08:52:10.000Z</time>
      </trkpt>
      <trkpt lat="43.45053" lon="6.41477">
        <ele>186.7</ele>
        <time>2021-06-23T08:52:20.000Z</time>
      </trkpt>
      <trkpt lat="43.45046" lon="6.41468">
        <ele>185.3</ele>
        <time>2021-06-23T08:52:29.000Z</time>
      </trkpt>
      <trkpt lat="43.45039" lon="6.4146">
        <ele>183.8</ele>
        <time>2021-06-23T08:52:39.000Z</time>
      </trkpt>
      <trkpt lat="43.45032" lon="6.41451">
        <ele>182.8</ele>
        <time>2021-06-23T08:52:49.000Z</time>
      </trkpt>
      <trkpt lat="43.45024" lon="6.41446">
        <ele>181.7</ele>
        <time>2021-06-23T08:52:56.000Z</time>
      </trkpt>
      <trkpt lat="43.45016" lon="6.41437">
        <ele>180.4</ele>
        <time>2021-06-23T08:53:06.000Z</time>
      </trkpt>
      <trkpt lat="43.45007" lon="6.41432">
        <ele>179.7</ele>
        <time>2021-06-23T08:53:18.000Z</time>
      </trkpt>
      <trkpt lat="43.44997" lon="6.41432">
        <ele>179.4</ele>
        <time>2021-06-23T08:53:31.000Z</time>
      </trkpt>
      <trkpt lat="43.44989" lon="6.41437">
        <ele>178.5</ele>
        <time>2021-06-23T08:53:42.000Z</time>
      </trkpt>
      <trkpt lat="43.4498" lon="6.41439">
        <ele>177.8</ele>
        <time>2021-06-23T08:53:51.000Z</time>
      </trkpt>
      <trkpt lat="43.44971" lon="6.41444">
        <ele>176.8</ele>
        <time>2021-06-23T08:54:01.000Z</time>
      </trkpt>
      <trkpt lat="43.44963" lon="6.4145">
        <ele>176.4</ele>
        <time>2021-06-23T08:54:11.000Z</time>
      </trkpt>
      <trkpt lat="43.44954" lon="6.41454">
        <ele>176</ele>
        <time>2021-06-23T08:54:20.000Z</time>
      </trkpt>
      <trkpt lat="43.44946" lon="6.41459">
        <ele>175.4</ele>
        <time>2021-06-23T08:54:29.000Z</time>
      </trkpt>
      <trkpt lat="43.44937" lon="6.41465">
        <ele>175</ele>
        <time>2021-06-23T08:54:38.000Z</time>
      </trkpt>
      <trkpt lat="43.44927" lon="6.4147">
        <ele>174.7</ele>
        <time>2021-06-23T08:54:48.000Z</time>
      </trkpt>
      <trkpt lat="43.44918" lon="6.41476">
        <ele>174.1</ele>
        <time>2021-06-23T08:54:57.000Z</time>
      </trkpt>
      <trkpt lat="43.44908" lon="6.41478">
        <ele>174.2</ele>
        <time>2021-06-23T08:55:06.000Z</time>
      </trkpt>
      <trkpt lat="43.449" lon="6.41481">
        <ele>174.3</ele>
        <time>2021-06-23T08:55:14.000Z</time>
      </trkpt>
      <trkpt lat="43.4489" lon="6.41485">
        <ele>174.2</ele>
        <time>2021-06-23T08:55:24.000Z</time>
      </trkpt>
      <trkpt lat="43.44881" lon="6.41488">
        <ele>173.9</ele>
        <time>2021-06-23T08:55:33.000Z</time>
      </trkpt>
      <trkpt lat="43.44872" lon="6.41492">
        <ele>174.1</ele>
        <time>2021-06-23T08:55:43.000Z</time>
      </trkpt>
      <trkpt lat="43.44862" lon="6.41493">
        <ele>173.7</ele>
        <time>2021-06-23T08:55:52.000Z</time>
      </trkpt>
      <trkpt lat="43.44853" lon="6.41496">
        <ele>173.1</ele>
        <time>2021-06-23T08:56:01.000Z</time>
      </trkpt>
      <trkpt lat="43.44844" lon="6.415">
        <ele>172.2</ele>
        <time>2021-06-23T08:56:11.000Z</time>
      </trkpt>
      <trkpt lat="43.44835" lon="6.41504">
        <ele>171.2</ele>
        <time>2021-06-23T08:56:21.000Z</time>
      </trkpt>
      <trkpt lat="43.44826" lon="6.41507">
        <ele>170.5</ele>
        <time>2021-06-23T08:56:30.000Z</time>
      </trkpt>
      <trkpt lat="43.44817" lon="6.41513">
        <ele>169.4</ele>
        <time>2021-06-23T08:56:47.000Z</time>
      </trkpt>
      <trkpt lat="43.44809" lon="6.41517">
        <ele>169.1</ele>
        <time>2021-06-23T08:57:20.000Z</time>
      </trkpt>
      <trkpt lat="43.448" lon="6.41522">
        <ele>168</ele>
        <time>2021-06-23T08:57:38.000Z</time>
      </trkpt>
      <trkpt lat="43.44795" lon="6.41533">
        <ele>167.5</ele>
        <time>2021-06-23T08:57:46.000Z</time>
      </trkpt>
      <trkpt lat="43.44787" lon="6.41541">
        <ele>167.1</ele>
        <time>2021-06-23T08:57:55.000Z</time>
      </trkpt>
      <trkpt lat="43.44779" lon="6.41546">
        <ele>166.4</ele>
        <time>2021-06-23T08:58:04.000Z</time>
      </trkpt>
      <trkpt lat="43.44771" lon="6.41552">
        <ele>164.7</ele>
        <time>2021-06-23T08:58:48.000Z</time>
      </trkpt>
      <trkpt lat="43.44763" lon="6.41559">
        <ele>163.4</ele>
        <time>2021-06-23T08:59:02.000Z</time>
      </trkpt>
      <trkpt lat="43.44756" lon="6.41569">
        <ele>162.7</ele>
        <time>2021-06-23T08:59:13.000Z</time>
      </trkpt>
      <trkpt lat="43.44749" lon="6.41579">
        <ele>162.2</ele>
        <time>2021-06-23T08:59:22.000Z</time>
      </trkpt>
      <trkpt lat="43.44744" lon="6.41591">
        <ele>161.4</ele>
        <time>2021-06-23T08:59:33.000Z</time>
      </trkpt>
      <trkpt lat="43.4474" lon="6.41603">
        <ele>160.5</ele>
        <time>2021-06-23T08:59:43.000Z</time>
      </trkpt>
      <trkpt lat="43.44735" lon="6.41614">
        <ele>159.8</ele>
        <time>2021-06-23T08:59:53.000Z</time>
      </trkpt>
      <trkpt lat="43.4473" lon="6.41625">
        <ele>159</ele>
        <time>2021-06-23T09:00:03.000Z</time>
      </trkpt>
      <trkpt lat="43.44727" lon="6.41637">
        <ele>158.5</ele>
        <time>2021-06-23T09:00:12.000Z</time>
      </trkpt>
      <trkpt lat="43.44723" lon="6.41648">
        <ele>156.9</ele>
        <time>2021-06-23T09:00:22.000Z</time>
      </trkpt>
      <trkpt lat="43.44718" lon="6.41659">
        <ele>156.7</ele>
        <time>2021-06-23T09:00:32.000Z</time>
      </trkpt>
      <trkpt lat="43.44714" lon="6.41671">
        <ele>156</ele>
        <time>2021-06-23T09:00:42.000Z</time>
      </trkpt>
      <trkpt lat="43.4471" lon="6.41683">
        <ele>155.3</ele>
        <time>2021-06-23T09:00:52.000Z</time>
      </trkpt>
      <trkpt lat="43.44704" lon="6.41693">
        <ele>154.8</ele>
        <time>2021-06-23T09:01:01.000Z</time>
      </trkpt>
      <trkpt lat="43.44699" lon="6.41703">
        <ele>154.8</ele>
        <time>2021-06-23T09:01:10.000Z</time>
      </trkpt>
      <trkpt lat="43.44695" lon="6.41715">
        <ele>154.1</ele>
        <time>2021-06-23T09:01:22.000Z</time>
      </trkpt>
      <trkpt lat="43.44689" lon="6.41724">
        <ele>153.5</ele>
        <time>2021-06-23T09:01:32.000Z</time>
      </trkpt>
      <trkpt lat="43.44683" lon="6.41733">
        <ele>152.8</ele>
        <time>2021-06-23T09:01:43.000Z</time>
      </trkpt>
      <trkpt lat="43.44675" lon="6.41741">
        <ele>151.7</ele>
        <time>2021-06-23T09:01:58.000Z</time>
      </trkpt>
      <trkpt lat="43.44666" lon="6.41744">
        <ele>150.5</ele>
        <time>2021-06-23T09:02:11.000Z</time>
      </trkpt>
      <trkpt lat="43.44657" lon="6.41743">
        <ele>148.8</ele>
        <time>2021-06-23T09:02:24.000Z</time>
      </trkpt>
      <trkpt lat="43.44648" lon="6.41741">
        <ele>147.6</ele>
        <time>2021-06-23T09:02:36.000Z</time>
      </trkpt>
      <trkpt lat="43.44637" lon="6.41739">
        <ele>146</ele>
        <time>2021-06-23T09:02:49.000Z</time>
      </trkpt>
      <trkpt lat="43.44628" lon="6.41738">
        <ele>144.2</ele>
        <time>2021-06-23T09:03:00.000Z</time>
      </trkpt>
      <trkpt lat="43.44618" lon="6.41741">
        <ele>143</ele>
        <time>2021-06-23T09:03:08.000Z</time>
      </trkpt>
      <trkpt lat="43.4461" lon="6.41749">
        <ele>140.7</ele>
        <time>2021-06-23T09:03:17.000Z</time>
      </trkpt>
      <trkpt lat="43.44605" lon="6.41758">
        <ele>138.1</ele>
        <time>2021-06-23T09:03:28.000Z</time>
      </trkpt>
      <trkpt lat="43.446" lon="6.41769">
        <ele>136.1</ele>
        <time>2021-06-23T09:03:38.000Z</time>
      </trkpt>
      <trkpt lat="43.44594" lon="6.41779">
        <ele>133.9</ele>
        <time>2021-06-23T09:03:48.000Z</time>
      </trkpt>
      <trkpt lat="43.44585" lon="6.41782">
        <ele>131.6</ele>
        <time>2021-06-23T09:03:58.000Z</time>
      </trkpt>
      <trkpt lat="43.44575" lon="6.41779">
        <ele>129.6</ele>
        <time>2021-06-23T09:04:26.000Z</time>
      </trkpt>
      <trkpt lat="43.44566" lon="6.41778">
        <ele>128.2</ele>
        <time>2021-06-23T09:04:36.000Z</time>
      </trkpt>
      <trkpt lat="43.44557" lon="6.41776">
        <ele>126.4</ele>
        <time>2021-06-23T09:04:50.000Z</time>
      </trkpt>
      <trkpt lat="43.44548" lon="6.41776">
        <ele>125.2</ele>
        <time>2021-06-23T09:06:12.000Z</time>
      </trkpt>
      <trkpt lat="43.44539" lon="6.41771">
        <ele>124.2</ele>
        <time>2021-06-23T09:06:24.000Z</time>
      </trkpt>
      <trkpt lat="43.44531" lon="6.41777">
        <ele>122.3</ele>
        <time>2021-06-23T09:06:36.000Z</time>
      </trkpt>
      <trkpt lat="43.44525" lon="6.41787">
        <ele>121</ele>
        <time>2021-06-23T09:06:47.000Z</time>
      </trkpt>
      <trkpt lat="43.4452" lon="6.41797">
        <ele>119.5</ele>
        <time>2021-06-23T09:06:58.000Z</time>
      </trkpt>
      <trkpt lat="43.44513" lon="6.41806">
        <ele>117.8</ele>
        <time>2021-06-23T09:07:09.000Z</time>
      </trkpt>
      <trkpt lat="43.44508" lon="6.41817">
        <ele>116.7</ele>
        <time>2021-06-23T09:07:19.000Z</time>
      </trkpt>
      <trkpt lat="43.44506" lon="6.41829">
        <ele>115.6</ele>
        <time>2021-06-23T09:07:31.000Z</time>
      </trkpt>
      <trkpt lat="43.44509" lon="6.41843">
        <ele>114.9</ele>
        <time>2021-06-23T09:07:42.000Z</time>
      </trkpt>
      <trkpt lat="43.44507" lon="6.41855">
        <ele>114</ele>
        <time>2021-06-23T09:07:51.000Z</time>
      </trkpt>
      <trkpt lat="43.44504" lon="6.41868">
        <ele>113.1</ele>
        <time>2021-06-23T09:08:01.000Z</time>
      </trkpt>
      <trkpt lat="43.44501" lon="6.41879">
        <ele>111.7</ele>
        <time>2021-06-23T09:08:12.000Z</time>
      </trkpt>
      <trkpt lat="43.44493" lon="6.41888">
        <ele>110.1</ele>
        <time>2021-06-23T09:08:23.000Z</time>
      </trkpt>
      <trkpt lat="43.44489" lon="6.41899">
        <ele>108.5</ele>
        <time>2021-06-23T09:08:35.000Z</time>
      </trkpt>
      <trkpt lat="43.44483" lon="6.4191">
        <ele>106.7</ele>
        <time>2021-06-23T09:08:47.000Z</time>
      </trkpt>
      <trkpt lat="43.44475" lon="6.41918">
        <ele>105.3</ele>
        <time>2021-06-23T09:08:57.000Z</time>
      </trkpt>
      <trkpt lat="43.44474" lon="6.41931">
        <ele>104.2</ele>
        <time>2021-06-23T09:09:12.000Z</time>
      </trkpt>
      <trkpt lat="43.4447" lon="6.41942">
        <ele>102.8</ele>
        <time>2021-06-23T09:09:23.000Z</time>
      </trkpt>
      <trkpt lat="43.44464" lon="6.41953">
        <ele>101.9</ele>
        <time>2021-06-23T09:09:34.000Z</time>
      </trkpt>
      <trkpt lat="43.44461" lon="6.41965">
        <ele>100</ele>
        <time>2021-06-23T09:09:46.000Z</time>
      </trkpt>
      <trkpt lat="43.44455" lon="6.41976">
        <ele>98.3</ele>
        <time>2021-06-23T09:09:58.000Z</time>
      </trkpt>
      <trkpt lat="43.44447" lon="6.41983">
        <ele>96.9</ele>
        <time>2021-06-23T09:10:10.000Z</time>
      </trkpt>
      <trkpt lat="43.44439" lon="6.4198">
        <ele>95.6</ele>
        <time>2021-06-23T09:10:40.000Z</time>
      </trkpt>
      <trkpt lat="43.4443" lon="6.41983">
        <ele>94.9</ele>
        <time>2021-06-23T09:11:28.000Z</time>
      </trkpt>
      <trkpt lat="43.44422" lon="6.41976">
        <ele>94.5</ele>
        <time>2021-06-23T09:11:37.000Z</time>
      </trkpt>
      <trkpt lat="43.44413" lon="6.41971">
        <ele>94.4</ele>
        <time>2021-06-23T09:11:49.000Z</time>
      </trkpt>
      <trkpt lat="43.44404" lon="6.41969">
        <ele>93.9</ele>
        <time>2021-06-23T09:12:00.000Z</time>
      </trkpt>
      <trkpt lat="43.444" lon="6.41981">
        <ele>93.2</ele>
        <time>2021-06-23T09:12:21.000Z</time>
      </trkpt>
      <trkpt lat="43.44394" lon="6.41992">
        <ele>92.5</ele>
        <time>2021-06-23T09:12:31.000Z</time>
      </trkpt>
      <trkpt lat="43.4439" lon="6.42003">
        <ele>91.4</ele>
        <time>2021-06-23T09:12:40.000Z</time>
      </trkpt>
      <trkpt lat="43.44386" lon="6.42015">
        <ele>90.3</ele>
        <time>2021-06-23T09:12:49.000Z</time>
      </trkpt>
      <trkpt lat="43.44381" lon="6.42026">
        <ele>89.1</ele>
        <time>2021-06-23T09:12:59.000Z</time>
      </trkpt>
      <trkpt lat="43.44376" lon="6.42037">
        <ele>88</ele>
        <time>2021-06-23T09:13:09.000Z</time>
      </trkpt>
      <trkpt lat="43.44372" lon="6.42049">
        <ele>86.9</ele>
        <time>2021-06-23T09:13:20.000Z</time>
      </trkpt>
      <trkpt lat="43.44368" lon="6.42061">
        <ele>86.3</ele>
        <time>2021-06-23T09:13:29.000Z</time>
      </trkpt>
      <trkpt lat="43.44364" lon="6.42073">
        <ele>84.9</ele>
        <time>2021-06-23T09:13:39.000Z</time>
      </trkpt>
      <trkpt lat="43.4436" lon="6.42085">
        <ele>83.3</ele>
        <time>2021-06-23T09:13:48.000Z</time>
      </trkpt>
      <trkpt lat="43.44356" lon="6.42096">
        <ele>81.7</ele>
        <time>2021-06-23T09:13:58.000Z</time>
      </trkpt>
      <trkpt lat="43.44351" lon="6.42107">
        <ele>79.9</ele>
        <time>2021-06-23T09:14:15.000Z</time>
      </trkpt>
      <trkpt lat="43.44347" lon="6.42119">
        <ele>78.8</ele>
        <time>2021-06-23T09:14:25.000Z</time>
      </trkpt>
      <trkpt lat="43.44346" lon="6.42132">
        <ele>77.3</ele>
        <time>2021-06-23T09:15:12.000Z</time>
      </trkpt>
      <trkpt lat="43.44344" lon="6.42144">
        <ele>77</ele>
        <time>2021-06-23T09:15:29.000Z</time>
      </trkpt>
      <trkpt lat="43.44347" lon="6.42152">
        <ele>76.4</ele>
        <time>2021-06-23T09:15:43.000Z</time>
      </trkpt>
    </trkseg>
  </trk>
</gpx>